Time,TemperatureF,DewpointF,PressureIn,WindDirection,WindDirectionDegrees,WindSpeedMPH,WindSpeedGustMPH,Humidity,HourlyPrecipIn,Conditions,Clouds,dailyrainin,SolarRadiationWatts/m^2,SoftwareType,DateUTC
2013-02-02 00:00:00,41.5,40.2,29.71,SSE,150,0.0,1.0,95,0.01,,CLR,0.01,0.00,VWS V14.01,2013-02-02 08:00:00,
2013-02-02 00:05:00,41.9,40.3,29.71,SSE,150,0.0,1.0,94,0.00,,CLR,0.00,0.00,VWS V14.01,2013-02-02 08:05:00,
2013-02-02 00:06:00,41.9,40.3,29.71,SSE,150,0.0,1.0,94,0.00,,CLR,0.00,0.00,VWS V14.01,2013-02-02 08:06:00,
2013-02-02 00:10:00,41.8,40.2,29.71,SSE,150,0.0,1.0,94,0.00,,CLR,0.00,0.00,VWS V14.01,2013-02-02 08:10:00,
2013-02-02 00:11:00,41.8,40.2,29.71,SSE,150,0.0,1.0,94,0.00,,CLR,0.00,0.00,VWS V14.01,2013-02-02 08:11:00,
2013-02-02 00:15:00,41.6,40.0,29.71,SSE,150,0.0,1.0,94,0.00,,CLR,0.00,0.00,VWS V14.01,2013-02-02 08:15:00,
2013-02-02 00:16:00,41.6,40.0,29.71,SSE,150,0.0,1.0,94,0.00,,CLR,0.00,0.00,VWS V14.01,2013-02-02 08:16:00,
2013-02-02 00:20:00,41.5,40.2,29.71,SSE,150,0.0,0.0,95,0.00,,CLR,0.00,0.00,VWS V14.01,2013-02-02 08:20:00,
2013-02-02 00:21:00,41.5,40.2,29.71,SSE,150,0.0,0.0,95,0.00,,CLR,0.00,0.00,VWS V14.01,2013-02-02 08:21:00,
2013-02-02 00:26:00,41.4,40.1,29.70,SSE,150,0.0,0.0,95,0.00,,CLR,0.00,0.00,VWS V14.01,2013-02-02 08:26:00,
2013-02-02 00:30:00,41.0,39.7,29.72,SSE,150,0.0,0.0,95,0.01,,CLR,0.01,0.00,VWS V14.01,2013-02-02 08:30:00,
2013-02-02 00:31:00,41.3,40.0,29.70,SSE,150,0.0,0.0,95,0.00,,CLR,0.00,0.00,VWS V14.01,2013-02-02 08:31:00,
2013-02-02 00:36:00,41.3,40.0,29.71,SSE,150,0.0,0.0,95,0.00,,CLR,0.00,0.00,VWS V14.01,2013-02-02 08:36:00,
2013-02-02 00:40:00,40.8,39.5,29.72,SSE,150,0.0,0.0,95,0.01,,CLR,0.01,0.00,VWS V14.01,2013-02-02 08:40:00,
2013-02-02 00:41:00,41.3,40.0,29.71,SSE,150,0.0,0.0,95,0.00,,CLR,0.00,0.00,VWS V14.01,2013-02-02 08:41:00,
2013-02-02 00:46:00,41.3,40.0,29.71,SSE,150,0.0,0.0,95,0.00,,CLR,0.00,0.00,VWS V14.01,2013-02-02 08:46:00,
2013-02-02 00:50:00,40.6,39.3,29.72,SSE,150,0.0,1.0,95,0.01,,CLR,0.01,0.00,VWS V14.01,2013-02-02 08:50:00,
2013-02-02 00:51:00,41.3,40.0,29.71,SSE,150,0.0,1.0,95,0.00,,CLR,0.00,0.00,VWS V14.01,2013-02-02 08:51:00,
2013-02-02 00:56:00,41.5,40.2,29.71,SSE,150,0.0,1.0,95,0.00,,CLR,0.00,0.00,VWS V14.01,2013-02-02 08:56:00,
2013-02-02 01:00:00,40.4,39.1,29.73,SSE,150,0.0,0.0,95,0.01,,CLR,0.01,0.00,VWS V14.01,2013-02-02 09:00:00,
2013-02-02 01:01:00,41.5,40.2,29.72,SSE,150,0.0,0.0,95,0.01,,CLR,0.01,0.00,VWS V14.01,2013-02-02 09:01:00,
2013-02-02 01:02:00,41.4,40.1,29.72,SSE,150,0.0,0.0,95,0.01,,CLR,0.01,0.00,VWS V14.01,2013-02-02 09:02:00,
2013-02-02 01:06:00,41.3,40.0,29.71,SSE,150,0.0,0.0,95,0.01,,CLR,0.01,0.00,VWS V14.01,2013-02-02 09:06:00,
2013-02-02 01:07:00,41.3,40.0,29.71,SSE,150,0.0,0.0,95,0.01,,CLR,0.01,0.00,VWS V14.01,2013-02-02 09:07:00,
2013-02-02 01:10:00,40.3,39.0,29.72,SSE,150,0.0,0.0,95,0.00,,CLR,0.01,0.00,VWS V14.01,2013-02-02 09:10:00,
2013-02-02 01:11:00,41.2,39.9,29.71,SSE,150,0.0,0.0,95,0.01,,CLR,0.01,0.00,VWS V14.01,2013-02-02 09:11:00,
2013-02-02 01:12:00,41.2,39.9,29.71,SSE,150,0.0,0.0,95,0.01,,CLR,0.01,0.00,VWS V14.01,2013-02-02 09:12:00,
2013-02-02 01:16:00,41.2,39.9,29.72,SSE,150,0.0,0.0,95,0.01,,CLR,0.01,0.00,VWS V14.01,2013-02-02 09:16:00,
2013-02-02 01:17:00,41.2,39.9,29.72,SSE,150,0.0,0.0,95,0.01,,CLR,0.01,0.00,VWS V14.01,2013-02-02 09:17:00,
2013-02-02 01:20:00,40.8,39.5,29.73,SSE,150,0.0,2.0,95,0.00,,CLR,0.01,0.00,VWS V14.01,2013-02-02 09:20:00,
2013-02-02 01:21:00,41.2,39.9,29.72,SSE,150,0.0,0.0,95,0.01,,CLR,0.01,0.00,VWS V14.01,2013-02-02 09:21:00,
2013-02-02 01:22:00,41.2,39.9,29.72,SSE,150,0.0,0.0,95,0.01,,CLR,0.01,0.00,VWS V14.01,2013-02-02 09:22:00,
2013-02-02 01:26:00,41.1,39.8,29.72,SSE,150,0.0,0.0,95,0.01,,CLR,0.01,0.00,VWS V14.01,2013-02-02 09:26:00,
2013-02-02 01:27:00,41.0,39.7,29.72,SSE,150,0.0,0.0,95,0.01,,CLR,0.01,0.00,VWS V14.01,2013-02-02 09:27:00,
2013-02-02 01:30:00,41.1,39.8,29.73,SSE,150,0.0,1.0,95,0.00,,CLR,0.01,0.00,VWS V14.01,2013-02-02 09:30:00,
2013-02-02 01:31:00,41.0,39.7,29.72,SSE,150,0.0,0.0,95,0.01,,CLR,0.01,0.00,VWS V14.01,2013-02-02 09:31:00,
2013-02-02 01:32:00,41.0,39.7,29.72,SSE,150,0.0,0.0,95,0.01,,CLR,0.01,0.00,VWS V14.01,2013-02-02 09:32:00,
2013-02-02 01:33:00,41.0,39.7,29.72,SSE,150,0.0,0.0,95,0.01,,CLR,0.01,0.00,VWS V14.01,2013-02-02 09:33:00,
2013-02-02 01:37:00,40.9,39.6,29.72,SSE,150,0.0,0.0,95,0.01,,CLR,0.01,0.00,VWS V14.01,2013-02-02 09:37:00,
2013-02-02 01:38:00,40.8,39.5,29.72,SSE,150,0.0,0.0,95,0.01,,CLR,0.01,0.00,VWS V14.01,2013-02-02 09:38:00,
2013-02-02 01:40:00,41.8,40.5,29.73,SSE,150,0.0,1.0,95,0.00,,CLR,0.01,0.00,VWS V14.01,2013-02-02 09:40:00,
2013-02-02 01:42:00,40.7,39.4,29.72,SSE,150,0.0,0.0,95,0.01,,CLR,0.01,0.00,VWS V14.01,2013-02-02 09:42:00,
2013-02-02 01:43:00,40.7,39.4,29.72,SSE,150,0.0,0.0,95,0.01,,CLR,0.01,0.00,VWS V14.01,2013-02-02 09:43:00,
2013-02-02 01:47:00,40.6,39.3,29.72,SSE,150,0.0,0.0,95,0.01,,CLR,0.01,0.00,VWS V14.01,2013-02-02 09:47:00,
2013-02-02 01:48:00,40.6,39.3,29.72,SSE,150,0.0,0.0,95,0.01,,CLR,0.01,0.00,VWS V14.01,2013-02-02 09:48:00,
2013-02-02 01:50:00,41.9,40.6,29.73,ESE,103,0.0,2.0,95,0.00,,CLR,0.01,0.00,VWS V14.01,2013-02-02 09:50:00,
2013-02-02 01:52:00,40.6,39.3,29.72,SSE,150,0.0,0.0,95,0.01,,CLR,0.01,0.00,VWS V14.01,2013-02-02 09:52:00,
2013-02-02 01:53:00,40.6,39.3,29.72,SSE,150,0.0,0.0,95,0.01,,CLR,0.01,0.00,VWS V14.01,2013-02-02 09:53:00,
2013-02-02 01:57:00,40.4,39.1,29.72,SSE,150,0.0,0.0,95,0.01,,CLR,0.01,0.00,VWS V14.01,2013-02-02 09:57:00,
2013-02-02 01:58:00,40.4,39.1,29.73,SSE,150,0.0,0.0,95,0.01,,CLR,0.01,0.00,VWS V14.01,2013-02-02 09:58:00,
2013-02-02 02:00:00,41.6,40.3,29.72,ESE,103,0.0,1.0,95,0.00,,CLR,0.01,0.00,VWS V14.01,2013-02-02 10:00:00,
2013-02-02 02:02:00,40.3,39.0,29.73,SSE,150,0.0,0.0,95,0.00,,CLR,0.01,0.00,VWS V14.01,2013-02-02 10:02:00,
2013-02-02 02:03:00,40.3,39.0,29.73,SSE,150,0.0,0.0,95,0.00,,CLR,0.01,0.00,VWS V14.01,2013-02-02 10:03:00,
2013-02-02 02:07:00,40.2,38.9,29.73,SSE,150,0.0,0.0,95,0.00,,CLR,0.01,0.00,VWS V14.01,2013-02-02 10:07:00,
2013-02-02 02:08:00,40.2,38.9,29.72,SSE,150,0.0,0.0,95,0.00,,CLR,0.01,0.00,VWS V14.01,2013-02-02 10:08:00,
2013-02-02 02:09:00,40.2,38.9,29.72,SSE,150,0.0,0.0,95,0.00,,CLR,0.01,0.00,VWS V14.01,2013-02-02 10:09:00,
2013-02-02 02:10:00,41.1,39.8,29.72,ESE,103,0.0,1.0,95,0.00,,CLR,0.01,0.00,VWS V14.01,2013-02-02 10:10:00,
2013-02-02 02:12:00,40.4,39.1,29.73,SSE,150,0.0,1.0,95,0.00,,CLR,0.01,0.00,VWS V14.01,2013-02-02 10:12:00,
2013-02-02 02:13:00,40.5,39.2,29.73,SSE,150,0.0,1.0,95,0.00,,CLR,0.01,0.00,VWS V14.01,2013-02-02 10:13:00,
2013-02-02 02:14:00,40.5,39.2,29.73,SSE,150,0.0,2.0,95,0.00,,CLR,0.01,0.00,VWS V14.01,2013-02-02 10:14:00,
2013-02-02 02:17:00,40.7,39.4,29.73,SSE,150,0.0,2.0,95,0.00,,CLR,0.01,0.00,VWS V14.01,2013-02-02 10:17:00,
2013-02-02 02:19:00,40.7,39.4,29.73,SSE,150,0.0,2.0,95,0.00,,CLR,0.01,0.00,VWS V14.01,2013-02-02 10:19:00,
2013-02-02 02:20:00,40.8,39.5,29.71,ESE,103,0.0,0.0,95,0.00,,CLR,0.01,0.00,VWS V14.01,2013-02-02 10:20:00,
2013-02-02 02:22:00,40.8,39.5,29.73,SSE,150,0.0,0.0,95,0.00,,CLR,0.01,0.00,VWS V14.01,2013-02-02 10:22:00,
2013-02-02 02:23:00,40.8,39.5,29.73,SSE,150,0.0,0.0,95,0.00,,CLR,0.01,0.00,VWS V14.01,2013-02-02 10:23:00,
2013-02-02 02:24:00,40.8,39.5,29.73,SSE,150,0.0,0.0,95,0.00,,CLR,0.01,0.00,VWS V14.01,2013-02-02 10:24:00,
2013-02-02 02:27:00,40.9,39.6,29.73,SSE,150,0.0,0.0,95,0.00,,CLR,0.01,0.00,VWS V14.01,2013-02-02 10:27:00,
2013-02-02 02:28:00,40.9,39.6,29.73,SSE,150,0.0,0.0,95,0.00,,CLR,0.01,0.00,VWS V14.01,2013-02-02 10:28:00,
2013-02-02 02:29:00,41.0,39.7,29.73,SSE,150,0.0,0.0,95,0.00,,CLR,0.01,0.00,VWS V14.01,2013-02-02 10:29:00,
2013-02-02 02:30:00,40.6,39.3,29.71,ESE,103,0.0,0.0,95,0.00,,CLR,0.01,0.00,VWS V14.01,2013-02-02 10:30:00,
2013-02-02 02:32:00,41.2,39.9,29.73,SSE,150,0.0,0.0,95,0.00,,CLR,0.01,0.00,VWS V14.01,2013-02-02 10:32:00,
2013-02-02 02:33:00,41.2,39.9,29.73,SSE,150,0.0,0.0,95,0.00,,CLR,0.01,0.00,VWS V14.01,2013-02-02 10:33:00,
2013-02-02 02:34:00,41.3,40.0,29.73,SSE,150,0.0,0.0,95,0.00,,CLR,0.01,0.00,VWS V14.01,2013-02-02 10:34:00,
2013-02-02 02:37:00,41.6,40.3,29.73,SSE,150,0.0,1.0,95,0.00,,CLR,0.01,0.00,VWS V14.01,2013-02-02 10:37:00,
2013-02-02 02:38:00,41.6,40.3,29.73,SSE,150,0.0,1.0,95,0.00,,CLR,0.01,0.00,VWS V14.01,2013-02-02 10:38:00,
2013-02-02 02:39:00,41.7,40.4,29.73,SSE,150,0.0,1.0,95,0.00,,CLR,0.01,0.00,VWS V14.01,2013-02-02 10:39:00,
2013-02-02 02:40:00,41.8,40.5,29.73,SSE,150,0.0,1.0,95,0.00,,CLR,0.01,0.00,VWS V14.01,2013-02-02 10:40:00,
2013-02-02 02:43:00,41.9,40.6,29.73,SSE,150,0.0,0.0,95,0.00,,CLR,0.01,0.00,VWS V14.01,2013-02-02 10:43:00,
2013-02-02 02:44:00,41.9,40.6,29.73,SSE,150,0.0,0.0,95,0.00,,CLR,0.01,0.00,VWS V14.01,2013-02-02 10:44:00,
2013-02-02 02:45:00,42.0,40.7,29.73,SSE,150,0.0,0.0,95,0.00,,CLR,0.01,0.00,VWS V14.01,2013-02-02 10:45:00,
2013-02-02 02:48:00,42.0,40.7,29.73,ESE,103,1.0,2.0,95,0.00,,CLR,0.01,0.00,VWS V14.01,2013-02-02 10:48:00,
2013-02-02 02:49:00,41.9,40.6,29.73,ESE,103,0.0,2.0,95,0.00,,CLR,0.01,0.00,VWS V14.01,2013-02-02 10:49:00,
2013-02-02 02:50:00,41.9,40.6,29.73,ESE,103,0.0,2.0,95,0.00,,CLR,0.01,0.00,VWS V14.01,2013-02-02 10:50:00,
2013-02-02 02:53:00,41.8,40.5,29.73,ESE,103,0.0,1.0,95,0.00,,CLR,0.01,0.00,VWS V14.01,2013-02-02 10:53:00,
2013-02-02 02:54:00,41.8,40.5,29.73,ESE,103,0.0,1.0,95,0.00,,CLR,0.01,0.00,VWS V14.01,2013-02-02 10:54:00,
2013-02-02 02:55:00,41.7,40.4,29.73,ESE,103,0.0,1.0,95,0.00,,CLR,0.01,0.00,VWS V14.01,2013-02-02 10:55:00,
2013-02-02 02:58:00,41.6,40.3,29.72,ESE,103,0.0,1.0,95,0.00,,CLR,0.01,0.00,VWS V14.01,2013-02-02 10:58:00,
2013-02-02 02:59:00,41.6,40.3,29.72,ESE,103,0.0,1.0,95,0.00,,CLR,0.01,0.00,VWS V14.01,2013-02-02 10:59:00,
2013-02-02 03:00:00,41.6,40.3,29.72,ESE,103,0.0,1.0,95,0.00,,CLR,0.01,0.00,VWS V14.01,2013-02-02 11:00:00,
2013-02-02 03:03:00,41.5,40.2,29.73,ESE,103,0.0,1.0,95,0.00,,CLR,0.01,0.00,VWS V14.01,2013-02-02 11:03:00,
2013-02-02 03:04:00,41.4,40.1,29.72,ESE,103,0.0,1.0,95,0.00,,CLR,0.01,0.00,VWS V14.01,2013-02-02 11:04:00,
2013-02-02 03:05:00,41.4,40.1,29.72,ESE,103,0.0,1.0,95,0.00,,CLR,0.01,0.00,VWS V14.01,2013-02-02 11:05:00,
2013-02-02 03:08:00,41.3,40.0,29.72,ESE,103,0.0,1.0,95,0.00,,CLR,0.01,0.00,VWS V14.01,2013-02-02 11:08:00,
2013-02-02 03:10:00,41.1,39.8,29.72,ESE,103,0.0,1.0,95,0.00,,CLR,0.01,0.00,VWS V14.01,2013-02-02 11:10:00,
2013-02-02 03:13:00,41.0,39.7,29.72,ESE,103,0.0,0.0,95,0.00,,CLR,0.01,0.00,VWS V14.01,2013-02-02 11:13:00,
2013-02-02 03:15:00,40.9,39.6,29.72,ESE,103,0.0,0.0,95,0.00,,CLR,0.01,0.00,VWS V14.01,2013-02-02 11:15:00,
2013-02-02 03:18:00,40.8,39.5,29.72,ESE,103,0.0,0.0,95,0.00,,CLR,0.01,0.00,VWS V14.01,2013-02-02 11:18:00,
2013-02-02 03:20:00,40.8,39.5,29.71,ESE,103,0.0,0.0,95,0.00,,CLR,0.01,0.00,VWS V14.01,2013-02-02 11:20:00,
2013-02-02 03:23:00,40.7,39.4,29.71,ESE,103,0.0,0.0,95,0.00,,CLR,0.01,0.00,VWS V14.01,2013-02-02 11:23:00,
2013-02-02 03:24:00,40.7,39.4,29.71,ESE,103,0.0,0.0,95,0.00,,CLR,0.01,0.00,VWS V14.01,2013-02-02 11:24:00,
2013-02-02 03:25:00,40.7,39.4,29.71,ESE,103,0.0,0.0,95,0.00,,CLR,0.01,0.00,VWS V14.01,2013-02-02 11:25:00,
2013-02-02 03:28:00,40.6,39.3,29.71,ESE,103,0.0,0.0,95,0.00,,CLR,0.01,0.00,VWS V14.01,2013-02-02 11:28:00,
2013-02-02 03:29:00,40.6,39.3,29.71,ESE,103,0.0,0.0,95,0.00,,CLR,0.01,0.00,VWS V14.01,2013-02-02 11:29:00,
2013-02-02 03:30:00,40.6,39.3,29.71,ESE,103,0.0,0.0,95,0.00,,CLR,0.01,0.00,VWS V14.01,2013-02-02 11:30:00,
2013-02-02 03:33:00,40.6,39.3,29.71,ESE,103,0.0,0.0,95,0.00,,CLR,0.01,0.00,VWS V14.01,2013-02-02 11:33:00,
2013-02-02 03:34:00,40.6,39.3,29.71,ESE,103,0.0,0.0,95,0.00,,CLR,0.01,0.00,VWS V14.01,2013-02-02 11:34:00,
2013-02-02 03:35:00,40.6,39.3,29.71,ESE,103,0.0,0.0,95,0.00,,CLR,0.01,0.00,VWS V14.01,2013-02-02 11:35:00,
2013-02-02 03:39:00,40.6,39.3,29.71,ESE,103,0.0,1.0,95,0.00,,CLR,0.01,0.00,VWS V14.01,2013-02-02 11:39:00,
2013-02-02 03:40:00,40.5,39.2,29.71,ESE,103,0.0,0.0,95,0.00,,CLR,0.01,0.00,VWS V14.01,2013-02-02 11:40:00,
2013-02-02 03:41:00,40.5,39.2,29.71,ESE,103,0.0,0.0,95,0.00,,CLR,0.01,0.00,VWS V14.01,2013-02-02 11:41:00,
2013-02-02 03:44:00,40.4,39.1,29.71,ESE,103,0.0,0.0,95,0.00,,CLR,0.01,0.00,VWS V14.01,2013-02-02 11:44:00,
2013-02-02 03:45:00,40.3,39.0,29.71,ESE,103,0.0,0.0,95,0.00,,CLR,0.01,0.00,VWS V14.01,2013-02-02 11:45:00,
2013-02-02 03:46:00,40.3,39.0,29.71,ESE,103,0.0,0.0,95,0.00,,CLR,0.01,0.00,VWS V14.01,2013-02-02 11:46:00,
2013-02-02 03:49:00,40.2,38.9,29.71,ESE,103,0.0,0.0,95,0.00,,CLR,0.01,0.00,VWS V14.01,2013-02-02 11:49:00,
2013-02-02 03:50:00,40.2,38.9,29.71,ESE,103,0.0,0.0,95,0.00,,CLR,0.01,0.00,VWS V14.01,2013-02-02 11:50:00,
2013-02-02 03:51:00,40.2,38.9,29.71,ESE,103,0.0,0.0,95,0.00,,CLR,0.01,0.00,VWS V14.01,2013-02-02 11:51:00,
2013-02-02 03:54:00,40.2,38.9,29.71,ESE,103,0.0,0.0,95,0.00,,CLR,0.01,0.00,VWS V14.01,2013-02-02 11:54:00,
2013-02-02 03:55:00,40.2,38.9,29.70,ESE,103,0.0,0.0,95,0.00,,CLR,0.01,0.00,VWS V14.01,2013-02-02 11:55:00,
2013-02-02 03:56:00,40.2,38.9,29.70,ESE,103,0.0,0.0,95,0.00,,CLR,0.01,0.00,VWS V14.01,2013-02-02 11:56:00,
2013-02-02 03:59:00,40.1,38.8,29.70,ESE,103,0.0,0.0,95,0.00,,CLR,0.01,0.00,VWS V14.01,2013-02-02 11:59:00,
2013-02-02 04:00:00,40.2,38.9,29.71,ESE,103,0.0,0.0,95,0.00,,CLR,0.01,0.00,VWS V14.01,2013-02-02 12:00:00,
2013-02-02 04:01:00,40.2,38.9,29.70,ESE,103,0.0,0.0,95,0.00,,CLR,0.01,0.00,VWS V14.01,2013-02-02 12:01:00,
2013-02-02 04:04:00,40.2,38.9,29.70,ESE,103,0.0,1.0,95,0.00,,CLR,0.01,0.00,VWS V14.01,2013-02-02 12:04:00,
2013-02-02 04:06:00,40.2,38.9,29.70,ESE,103,0.0,1.0,95,0.00,,CLR,0.01,0.00,VWS V14.01,2013-02-02 12:06:00,
2013-02-02 04:09:00,40.2,38.9,29.70,ESE,103,0.0,1.0,95,0.00,,CLR,0.01,0.00,VWS V14.01,2013-02-02 12:09:00,
2013-02-02 04:10:00,40.2,38.9,29.71,ESE,103,0.0,0.0,95,0.00,,CLR,0.01,0.00,VWS V14.01,2013-02-02 12:10:00,
2013-02-02 04:11:00,40.2,38.9,29.70,ESE,103,0.0,0.0,95,0.00,,CLR,0.01,0.00,VWS V14.01,2013-02-02 12:11:00,
2013-02-02 04:14:00,40.2,38.9,29.70,ESE,103,0.0,0.0,95,0.00,,CLR,0.01,0.00,VWS V14.01,2013-02-02 12:14:00,
2013-02-02 04:16:00,40.2,38.9,29.70,ESE,103,0.0,0.0,95,0.00,,CLR,0.01,0.00,VWS V14.01,2013-02-02 12:16:00,
2013-02-02 04:19:00,40.2,38.9,29.70,ESE,103,0.0,0.0,95,0.00,,CLR,0.01,0.00,VWS V14.01,2013-02-02 12:19:00,
2013-02-02 04:20:00,40.2,38.9,29.70,ESE,103,0.0,0.0,95,0.00,,CLR,0.01,0.00,VWS V14.01,2013-02-02 12:20:00,
2013-02-02 04:21:00,40.2,38.9,29.70,ESE,103,0.0,0.0,95,0.00,,CLR,0.01,0.00,VWS V14.01,2013-02-02 12:21:00,
2013-02-02 04:24:00,40.2,38.9,29.71,ESE,103,0.0,0.0,95,0.00,,CLR,0.01,0.00,VWS V14.01,2013-02-02 12:24:00,
2013-02-02 04:25:00,40.2,38.9,29.71,ESE,103,0.0,0.0,95,0.00,,CLR,0.01,0.00,VWS V14.01,2013-02-02 12:25:00,
2013-02-02 04:26:00,40.2,38.9,29.70,ESE,103,0.0,0.0,95,0.00,,CLR,0.01,0.00,VWS V14.01,2013-02-02 12:26:00,
2013-02-02 04:29:00,40.2,38.9,29.70,ESE,103,0.0,0.0,95,0.00,,CLR,0.01,0.00,VWS V14.01,2013-02-02 12:29:00,
2013-02-02 04:30:00,40.2,38.9,29.70,ESE,103,0.0,0.0,95,0.00,,CLR,0.01,0.00,VWS V14.01,2013-02-02 12:30:00,
2013-02-02 04:31:00,40.2,38.9,29.70,ESE,103,0.0,0.0,95,0.00,,CLR,0.01,0.00,VWS V14.01,2013-02-02 12:31:00,
2013-02-02 04:34:00,40.2,38.9,29.70,ESE,103,0.0,0.0,95,0.00,,CLR,0.01,0.00,VWS V14.01,2013-02-02 12:34:00,
2013-02-02 04:35:00,40.2,38.9,29.71,ESE,103,0.0,0.0,95,0.00,,CLR,0.01,0.00,VWS V14.01,2013-02-02 12:35:00,
2013-02-02 04:36:00,40.2,38.9,29.71,ESE,103,0.0,0.0,95,0.00,,CLR,0.01,0.00,VWS V14.01,2013-02-02 12:36:00,
2013-02-02 04:37:00,40.2,38.9,29.71,ESE,103,0.0,0.0,95,0.00,,CLR,0.01,0.00,VWS V14.01,2013-02-02 12:37:00,
2013-02-02 04:39:00,40.2,38.9,29.71,ESE,103,0.0,0.0,95,0.00,,CLR,0.01,0.00,VWS V14.01,2013-02-02 12:39:00,
2013-02-02 04:40:00,40.2,38.9,29.71,ESE,103,0.0,0.0,95,0.00,,CLR,0.01,0.00,VWS V14.01,2013-02-02 12:40:00,
2013-02-02 04:41:00,40.2,38.9,29.71,ESE,103,0.0,0.0,95,0.00,,CLR,0.01,0.00,VWS V14.01,2013-02-02 12:41:00,
2013-02-02 04:42:00,40.2,38.9,29.71,ESE,103,0.0,0.0,95,0.00,,CLR,0.01,0.00,VWS V14.01,2013-02-02 12:42:00,
2013-02-02 04:44:00,40.2,38.9,29.71,ESE,103,0.0,0.0,95,0.00,,CLR,0.01,0.00,VWS V14.01,2013-02-02 12:44:00,
2013-02-02 04:45:00,40.2,38.9,29.71,ESE,103,0.0,0.0,95,0.00,,CLR,0.01,0.00,VWS V14.01,2013-02-02 12:45:00,
2013-02-02 04:47:00,40.2,38.9,29.71,ESE,103,0.0,0.0,95,0.00,,CLR,0.01,0.00,VWS V14.01,2013-02-02 12:47:00,
2013-02-02 04:49:00,40.2,38.9,29.71,ESE,103,0.0,0.0,95,0.00,,CLR,0.01,0.00,VWS V14.01,2013-02-02 12:49:00,
2013-02-02 04:50:00,40.2,38.9,29.71,ESE,103,0.0,0.0,95,0.00,,CLR,0.01,0.00,VWS V14.01,2013-02-02 12:50:00,
2013-02-02 04:52:00,40.2,38.9,29.71,ESE,103,0.0,0.0,95,0.00,,CLR,0.01,0.00,VWS V14.01,2013-02-02 12:52:00,
2013-02-02 04:54:00,40.2,38.9,29.71,ESE,103,0.0,0.0,95,0.00,,CLR,0.01,0.00,VWS V14.01,2013-02-02 12:54:00,
2013-02-02 04:56:00,40.2,38.9,29.71,ESE,103,0.0,0.0,95,0.00,,CLR,0.01,0.00,VWS V14.01,2013-02-02 12:56:00,
2013-02-02 04:57:00,40.2,38.9,29.71,ESE,103,0.0,0.0,95,0.00,,CLR,0.01,0.00,VWS V14.01,2013-02-02 12:57:00,
2013-02-02 04:59:00,40.2,38.9,29.71,ESE,103,0.0,0.0,95,0.00,,CLR,0.01,0.00,VWS V14.01,2013-02-02 12:59:00,
2013-02-02 05:00:00,40.0,38.7,29.71,ESE,103,0.0,0.0,95,0.00,,CLR,0.01,0.00,VWS V14.01,2013-02-02 13:00:00,
2013-02-02 05:01:00,40.2,38.9,29.71,ESE,103,0.0,0.0,95,0.00,,CLR,0.01,0.00,VWS V14.01,2013-02-02 13:01:00,
2013-02-02 05:02:00,40.2,38.9,29.71,ESE,103,0.0,0.0,95,0.00,,CLR,0.01,0.00,VWS V14.01,2013-02-02 13:02:00,
2013-02-02 05:04:00,40.2,38.9,29.71,ESE,103,0.0,0.0,95,0.00,,CLR,0.01,0.00,VWS V14.01,2013-02-02 13:04:00,
2013-02-02 05:06:00,40.2,38.9,29.71,ESE,103,0.0,0.0,95,0.00,,CLR,0.01,0.00,VWS V14.01,2013-02-02 13:06:00,
2013-02-02 05:07:00,40.2,38.9,29.71,ESE,103,0.0,0.0,95,0.00,,CLR,0.01,0.00,VWS V14.01,2013-02-02 13:07:00,
2013-02-02 05:08:00,40.2,38.9,29.71,ESE,103,0.0,0.0,95,0.00,,CLR,0.01,0.00,VWS V14.01,2013-02-02 13:08:00,
2013-02-02 05:10:00,40.2,38.9,29.71,ESE,103,0.0,0.0,95,0.00,,CLR,0.01,0.00,VWS V14.01,2013-02-02 13:10:00,
2013-02-02 05:11:00,40.2,38.9,29.71,ESE,103,0.0,0.0,95,0.00,,CLR,0.01,0.00,VWS V14.01,2013-02-02 13:11:00,
2013-02-02 05:12:00,40.2,38.9,29.71,ESE,103,0.0,0.0,95,0.00,,CLR,0.01,0.00,VWS V14.01,2013-02-02 13:12:00,
2013-02-02 05:13:00,40.2,38.9,29.71,ESE,103,0.0,0.0,95,0.00,,CLR,0.01,0.00,VWS V14.01,2013-02-02 13:13:00,
2013-02-02 05:15:00,40.2,38.9,29.71,ESE,103,0.0,0.0,95,0.00,,CLR,0.01,0.00,VWS V14.01,2013-02-02 13:15:00,
2013-02-02 05:16:00,40.2,38.9,29.71,ESE,103,0.0,0.0,95,0.00,,CLR,0.01,0.00,VWS V14.01,2013-02-02 13:16:00,
2013-02-02 05:17:00,40.2,38.9,29.71,ESE,103,0.0,0.0,95,0.00,,CLR,0.01,0.00,VWS V14.01,2013-02-02 13:17:00,
2013-02-02 05:18:00,40.2,38.9,29.71,ESE,103,0.0,0.0,95,0.00,,CLR,0.01,0.00,VWS V14.01,2013-02-02 13:18:00,
2013-02-02 05:20:00,40.2,38.9,29.71,ESE,103,0.0,0.0,95,0.00,,CLR,0.01,0.00,VWS V14.01,2013-02-02 13:20:00,
2013-02-02 05:21:00,40.2,38.9,29.71,ESE,103,0.0,0.0,95,0.00,,CLR,0.01,0.00,VWS V14.01,2013-02-02 13:21:00,
2013-02-02 05:22:00,40.2,38.9,29.71,ESE,103,0.0,0.0,95,0.00,,CLR,0.01,0.00,VWS V14.01,2013-02-02 13:22:00,
2013-02-02 05:23:00,40.2,38.9,29.71,ESE,103,0.0,0.0,95,0.00,,CLR,0.01,0.00,VWS V14.01,2013-02-02 13:23:00,
2013-02-02 05:26:00,40.2,38.9,29.71,ESE,103,0.0,0.0,95,0.00,,CLR,0.01,0.00,VWS V14.01,2013-02-02 13:26:00,
2013-02-02 05:27:00,40.2,38.9,29.71,ESE,103,0.0,0.0,95,0.00,,CLR,0.01,0.00,VWS V14.01,2013-02-02 13:27:00,
2013-02-02 05:28:00,40.2,38.9,29.71,ESE,103,0.0,0.0,95,0.00,,CLR,0.01,0.00,VWS V14.01,2013-02-02 13:28:00,
2013-02-02 05:30:00,40.2,39.2,29.72,ESE,103,0.0,0.0,96,0.00,,CLR,0.01,0.00,VWS V14.01,2013-02-02 13:30:00,
2013-02-02 05:31:00,40.1,38.8,29.71,ESE,103,0.0,0.0,95,0.00,,CLR,0.01,0.00,VWS V14.01,2013-02-02 13:31:00,
2013-02-02 05:32:00,40.1,38.8,29.71,ESE,103,0.0,0.0,95,0.00,,CLR,0.01,0.00,VWS V14.01,2013-02-02 13:32:00,
2013-02-02 05:33:00,40.1,38.8,29.71,ESE,103,0.0,0.0,95,0.00,,CLR,0.01,0.00,VWS V14.01,2013-02-02 13:33:00,
2013-02-02 05:36:00,40.1,38.8,29.71,ESE,103,0.0,0.0,95,0.00,,CLR,0.01,0.00,VWS V14.01,2013-02-02 13:36:00,
2013-02-02 05:37:00,40.1,38.8,29.71,ESE,103,0.0,0.0,95,0.00,,CLR,0.01,0.00,VWS V14.01,2013-02-02 13:37:00,
2013-02-02 05:39:00,40.1,38.8,29.71,ESE,103,0.0,0.0,95,0.00,,CLR,0.01,0.00,VWS V14.01,2013-02-02 13:39:00,
2013-02-02 05:40:00,40.2,38.9,29.72,ESE,103,0.0,0.0,95,0.00,,CLR,0.01,0.00,VWS V14.01,2013-02-02 13:40:00,
2013-02-02 05:41:00,40.1,38.8,29.71,ESE,103,0.0,0.0,95,0.00,,CLR,0.01,0.00,VWS V14.01,2013-02-02 13:41:00,
2013-02-02 05:42:00,40.1,38.8,29.71,ESE,103,0.0,0.0,95,0.00,,CLR,0.01,0.00,VWS V14.01,2013-02-02 13:42:00,
2013-02-02 05:44:00,40.1,38.8,29.71,ESE,103,0.0,0.0,95,0.00,,CLR,0.01,0.00,VWS V14.01,2013-02-02 13:44:00,
2013-02-02 05:46:00,40.1,38.8,29.71,ESE,103,0.0,0.0,95,0.00,,CLR,0.01,0.00,VWS V14.01,2013-02-02 13:46:00,
2013-02-02 05:47:00,40.0,38.7,29.71,ESE,103,0.0,0.0,95,0.00,,CLR,0.01,0.00,VWS V14.01,2013-02-02 13:47:00,
2013-02-02 05:48:00,40.1,38.8,29.71,ESE,103,0.0,0.0,95,0.00,,CLR,0.01,0.00,VWS V14.01,2013-02-02 13:48:00,
2013-02-02 05:49:00,40.0,38.7,29.71,ESE,103,0.0,0.0,95,0.00,,CLR,0.01,0.00,VWS V14.01,2013-02-02 13:49:00,
2013-02-02 05:50:00,40.4,39.1,29.72,ESE,103,0.0,1.0,95,0.00,,CLR,0.01,0.00,VWS V14.01,2013-02-02 13:50:00,
2013-02-02 05:51:00,40.0,38.7,29.71,ESE,103,0.0,0.0,95,0.00,,CLR,0.01,0.00,VWS V14.01,2013-02-02 13:51:00,
2013-02-02 05:52:00,40.0,38.7,29.71,ESE,103,0.0,0.0,95,0.00,,CLR,0.01,0.00,VWS V14.01,2013-02-02 13:52:00,
2013-02-02 05:53:00,40.0,38.7,29.71,ESE,103,0.0,0.0,95,0.00,,CLR,0.01,0.00,VWS V14.01,2013-02-02 13:53:00,
2013-02-02 05:54:00,40.0,38.7,29.71,ESE,103,0.0,0.0,95,0.00,,CLR,0.01,0.00,VWS V14.01,2013-02-02 13:54:00,
2013-02-02 05:57:00,40.0,38.7,29.71,ESE,103,0.0,0.0,95,0.00,,CLR,0.01,0.00,VWS V14.01,2013-02-02 13:57:00,
2013-02-02 05:58:00,40.0,38.7,29.71,ESE,103,0.0,0.0,95,0.00,,CLR,0.01,0.00,VWS V14.01,2013-02-02 13:58:00,
2013-02-02 05:59:00,40.0,38.7,29.71,ESE,103,0.0,0.0,95,0.00,,CLR,0.01,0.00,VWS V14.01,2013-02-02 13:59:00,
2013-02-02 06:00:00,40.2,38.9,29.73,ESE,103,0.0,1.0,95,0.00,,CLR,0.01,0.00,VWS V14.01,2013-02-02 14:00:00,
2013-02-02 06:02:00,40.0,38.7,29.71,ESE,103,0.0,0.0,95,0.00,,CLR,0.01,0.00,VWS V14.01,2013-02-02 14:02:00,
2013-02-02 06:03:00,40.0,38.7,29.71,ESE,103,0.0,0.0,95,0.00,,CLR,0.01,0.00,VWS V14.01,2013-02-02 14:03:00,
2013-02-02 06:04:00,40.0,38.7,29.71,ESE,103,0.0,0.0,95,0.00,,CLR,0.01,0.00,VWS V14.01,2013-02-02 14:04:00,
2013-02-02 06:07:00,40.0,38.7,29.72,ESE,103,0.0,0.0,95,0.00,,CLR,0.01,0.00,VWS V14.01,2013-02-02 14:07:00,
2013-02-02 06:08:00,40.0,38.7,29.72,ESE,103,0.0,0.0,95,0.00,,CLR,0.01,0.00,VWS V14.01,2013-02-02 14:08:00,
2013-02-02 06:09:00,40.0,38.7,29.72,ESE,103,0.0,0.0,95,0.00,,CLR,0.01,0.00,VWS V14.01,2013-02-02 14:09:00,
2013-02-02 06:10:00,40.0,38.7,29.73,ESE,103,0.0,1.0,95,0.00,,CLR,0.01,0.00,VWS V14.01,2013-02-02 14:10:00,
2013-02-02 06:12:00,40.0,38.7,29.72,ESE,103,0.0,0.0,95,0.00,,CLR,0.01,0.00,VWS V14.01,2013-02-02 14:12:00,
2013-02-02 06:13:00,40.0,38.7,29.72,ESE,103,0.0,0.0,95,0.00,,CLR,0.01,0.00,VWS V14.01,2013-02-02 14:13:00,
2013-02-02 06:14:00,40.1,38.8,29.72,ESE,103,0.0,0.0,95,0.00,,CLR,0.01,0.00,VWS V14.01,2013-02-02 14:14:00,
2013-02-02 06:17:00,40.1,38.8,29.72,ESE,103,0.0,0.0,95,0.00,,CLR,0.01,0.00,VWS V14.01,2013-02-02 14:17:00,
2013-02-02 06:18:00,40.1,39.0,29.72,ESE,103,0.0,0.0,96,0.00,,CLR,0.01,0.00,VWS V14.01,2013-02-02 14:18:00,
2013-02-02 06:19:00,40.1,39.0,29.72,ESE,103,0.0,0.0,96,0.00,,CLR,0.01,0.00,VWS V14.01,2013-02-02 14:19:00,
2013-02-02 06:20:00,40.0,38.7,29.74,ESE,103,1.0,1.0,95,0.00,,CLR,0.01,5.00,VWS V14.01,2013-02-02 14:20:00,
2013-02-02 06:22:00,40.1,38.8,29.72,ESE,103,0.0,0.0,95,0.00,,CLR,0.01,0.00,VWS V14.01,2013-02-02 14:22:00,
2013-02-02 06:23:00,40.2,39.2,29.72,ESE,103,0.0,0.0,96,0.00,,CLR,0.01,0.00,VWS V14.01,2013-02-02 14:23:00,
2013-02-02 06:24:00,40.1,39.0,29.72,ESE,103,0.0,0.0,96,0.00,,CLR,0.01,0.00,VWS V14.01,2013-02-02 14:24:00,
2013-02-02 06:27:00,40.2,38.9,29.72,ESE,103,0.0,0.0,95,0.00,,CLR,0.01,0.00,VWS V14.01,2013-02-02 14:27:00,
2013-02-02 06:28:00,40.2,39.2,29.72,ESE,103,0.0,0.0,96,0.00,,CLR,0.01,0.00,VWS V14.01,2013-02-02 14:28:00,
2013-02-02 06:29:00,40.2,39.2,29.72,ESE,103,0.0,0.0,96,0.00,,CLR,0.01,0.00,VWS V14.01,2013-02-02 14:29:00,
2013-02-02 06:30:00,40.1,39.0,29.74,ESE,103,0.0,1.0,96,0.00,,CLR,0.01,11.00,VWS V14.01,2013-02-02 14:30:00,
2013-02-02 06:32:00,40.2,39.2,29.72,ESE,103,0.0,0.0,96,0.00,,CLR,0.01,0.00,VWS V14.01,2013-02-02 14:32:00,
2013-02-02 06:33:00,40.2,38.9,29.72,ESE,103,0.0,0.0,95,0.00,,CLR,0.01,0.00,VWS V14.01,2013-02-02 14:33:00,
2013-02-02 06:34:00,40.2,38.9,29.73,ESE,103,0.0,0.0,95,0.00,,CLR,0.01,0.00,VWS V14.01,2013-02-02 14:34:00,
2013-02-02 06:37:00,40.2,38.9,29.73,ESE,103,0.0,0.0,95,0.00,,CLR,0.01,0.00,VWS V14.01,2013-02-02 14:37:00,
2013-02-02 06:38:00,40.2,38.9,29.73,ESE,103,0.0,0.0,95,0.00,,CLR,0.01,0.00,VWS V14.01,2013-02-02 14:38:00,
2013-02-02 06:39:00,40.2,38.9,29.72,ESE,103,0.0,0.0,95,0.00,,CLR,0.01,0.00,VWS V14.01,2013-02-02 14:39:00,
2013-02-02 06:40:00,40.4,39.1,29.74,ESE,103,0.0,0.0,95,0.00,,CLR,0.01,19.00,VWS V14.01,2013-02-02 14:40:00,
2013-02-02 06:42:00,40.3,39.0,29.72,ESE,103,0.0,0.0,95,0.00,,CLR,0.01,0.00,VWS V14.01,2013-02-02 14:42:00,
2013-02-02 06:43:00,40.3,39.0,29.72,ESE,103,0.0,0.0,95,0.00,,CLR,0.01,0.00,VWS V14.01,2013-02-02 14:43:00,
2013-02-02 06:44:00,40.3,39.0,29.73,ESE,103,0.0,0.0,95,0.00,,CLR,0.01,0.00,VWS V14.01,2013-02-02 14:44:00,
2013-02-02 06:47:00,40.4,39.1,29.73,ESE,103,0.0,1.0,95,0.00,,CLR,0.01,0.00,VWS V14.01,2013-02-02 14:47:00,
2013-02-02 06:48:00,40.4,39.1,29.72,ESE,103,0.0,1.0,95,0.00,,CLR,0.01,0.00,VWS V14.01,2013-02-02 14:48:00,
2013-02-02 06:50:00,40.4,39.1,29.72,ESE,103,0.0,1.0,95,0.00,,CLR,0.01,0.00,VWS V14.01,2013-02-02 14:50:00,
2013-02-02 06:52:00,40.4,39.1,29.73,ESE,103,0.0,0.0,95,0.00,,CLR,0.01,0.00,VWS V14.01,2013-02-02 14:52:00,
2013-02-02 06:53:00,40.4,39.1,29.73,ESE,103,0.0,0.0,95,0.00,,CLR,0.01,0.00,VWS V14.01,2013-02-02 14:53:00,
2013-02-02 06:54:00,40.3,39.0,29.73,ESE,103,0.0,0.0,95,0.00,,CLR,0.01,0.00,VWS V14.01,2013-02-02 14:54:00,
2013-02-02 06:55:00,40.3,39.0,29.73,ESE,103,0.0,0.0,95,0.00,,CLR,0.01,0.00,VWS V14.01,2013-02-02 14:55:00,
2013-02-02 06:57:00,40.3,39.0,29.73,ESE,103,0.0,0.0,95,0.00,,CLR,0.01,0.00,VWS V14.01,2013-02-02 14:57:00,
2013-02-02 06:58:00,40.2,38.9,29.72,ESE,103,0.0,0.0,95,0.00,,CLR,0.01,0.00,VWS V14.01,2013-02-02 14:58:00,
2013-02-02 06:59:00,40.2,38.9,29.72,ESE,103,0.0,0.0,95,0.00,,CLR,0.01,0.00,VWS V14.01,2013-02-02 14:59:00,
2013-02-02 07:00:00,40.2,38.9,29.73,ESE,103,0.0,0.0,95,0.00,,CLR,0.01,0.00,VWS V14.01,2013-02-02 15:00:00,
2013-02-02 07:02:00,40.2,38.9,29.73,ESE,103,0.0,0.0,95,0.00,,CLR,0.01,0.00,VWS V14.01,2013-02-02 15:02:00,
2013-02-02 07:03:00,40.1,38.8,29.73,ESE,103,1.0,1.0,95,0.00,,CLR,0.01,0.00,VWS V14.01,2013-02-02 15:03:00,
2013-02-02 07:04:00,40.1,38.8,29.73,ESE,103,0.0,1.0,95,0.00,,CLR,0.01,0.00,VWS V14.01,2013-02-02 15:04:00,
2013-02-02 07:05:00,40.0,38.7,29.73,ESE,103,0.0,1.0,95,0.00,,CLR,0.01,0.00,VWS V14.01,2013-02-02 15:05:00,
2013-02-02 07:07:00,40.0,38.7,29.73,ESE,103,0.0,1.0,95,0.00,,CLR,0.01,0.00,VWS V14.01,2013-02-02 15:07:00,
2013-02-02 07:08:00,40.0,38.7,29.73,ESE,103,0.0,1.0,95,0.00,,CLR,0.01,0.00,VWS V14.01,2013-02-02 15:08:00,
2013-02-02 07:09:00,40.0,38.7,29.73,ESE,103,0.0,1.0,95,0.00,,CLR,0.01,0.00,VWS V14.01,2013-02-02 15:09:00,
2013-02-02 07:10:00,40.0,38.7,29.73,ESE,103,0.0,0.0,95,0.00,,CLR,0.01,0.00,VWS V14.01,2013-02-02 15:10:00,
2013-02-02 07:12:00,39.9,38.6,29.74,ESE,103,0.0,0.0,95,0.00,,CLR,0.01,0.00,VWS V14.01,2013-02-02 15:12:00,
2013-02-02 07:13:00,39.9,38.6,29.74,ESE,103,0.0,0.0,95,0.00,,CLR,0.01,0.00,VWS V14.01,2013-02-02 15:13:00,
2013-02-02 07:14:00,39.9,38.6,29.74,ESE,103,0.0,0.0,95,0.00,,CLR,0.01,0.00,VWS V14.01,2013-02-02 15:14:00,
2013-02-02 07:15:00,39.9,38.6,29.74,ESE,103,0.0,0.0,95,0.00,,CLR,0.01,0.00,VWS V14.01,2013-02-02 15:15:00,
2013-02-02 07:18:00,39.9,38.6,29.74,ESE,103,0.0,0.0,95,0.00,,CLR,0.01,5.00,VWS V14.01,2013-02-02 15:18:00,
2013-02-02 07:19:00,40.0,38.7,29.74,ESE,103,0.0,0.0,95,0.00,,CLR,0.01,5.00,VWS V14.01,2013-02-02 15:19:00,
2013-02-02 07:20:00,40.0,38.7,29.74,ESE,103,0.0,1.0,95,0.00,,CLR,0.01,5.00,VWS V14.01,2013-02-02 15:20:00,
2013-02-02 07:23:00,40.0,38.7,29.74,ESE,103,0.0,1.0,95,0.00,,CLR,0.01,7.00,VWS V14.01,2013-02-02 15:23:00,
2013-02-02 07:24:00,40.1,38.8,29.74,ESE,103,0.0,1.0,95,0.00,,CLR,0.01,7.00,VWS V14.01,2013-02-02 15:24:00,
2013-02-02 07:26:00,40.1,38.8,29.74,ESE,103,0.0,1.0,95,0.00,,CLR,0.01,9.00,VWS V14.01,2013-02-02 15:26:00,
2013-02-02 07:28:00,40.1,39.0,29.74,ESE,103,0.0,1.0,96,0.00,,CLR,0.01,11.00,VWS V14.01,2013-02-02 15:28:00,
2013-02-02 07:29:00,40.1,39.0,29.74,ESE,103,0.0,1.0,96,0.00,,CLR,0.01,11.00,VWS V14.01,2013-02-02 15:29:00,
2013-02-02 07:30:00,41.5,40.5,29.76,ESE,103,0.0,2.0,96,0.00,,CLR,0.01,72.00,VWS V14.01,2013-02-02 15:30:00,
2013-02-02 07:31:00,40.1,39.0,29.74,ESE,103,0.0,0.0,96,0.00,,CLR,0.01,12.00,VWS V14.01,2013-02-02 15:31:00,
2013-02-02 07:33:00,40.2,39.2,29.74,ESE,103,0.0,0.0,96,0.00,,CLR,0.01,12.00,VWS V14.01,2013-02-02 15:33:00,
2013-02-02 07:34:00,40.2,38.9,29.74,ESE,103,0.0,0.0,95,0.00,,CLR,0.01,14.00,VWS V14.01,2013-02-02 15:34:00,
2013-02-02 07:36:00,40.3,39.0,29.74,ESE,103,0.0,0.0,95,0.00,,CLR,0.01,14.00,VWS V14.01,2013-02-02 15:36:00,
2013-02-02 07:38:00,40.4,39.1,29.74,ESE,103,0.0,0.0,95,0.00,,CLR,0.01,18.00,VWS V14.01,2013-02-02 15:38:00,
2013-02-02 07:39:00,40.4,39.1,29.74,ESE,103,0.0,0.0,95,0.00,,CLR,0.01,18.00,VWS V14.01,2013-02-02 15:39:00,
2013-02-02 07:40:00,41.6,40.5,29.75,ESE,103,0.0,1.0,96,0.00,,CLR,0.01,91.00,VWS V14.01,2013-02-02 15:40:00,
2013-02-02 07:41:00,40.4,39.1,29.74,ESE,103,0.0,0.0,95,0.00,,CLR,0.01,19.00,VWS V14.01,2013-02-02 15:41:00,
2013-02-02 07:43:00,40.5,39.2,29.74,ESE,103,0.0,0.0,95,0.00,,CLR,0.01,21.00,VWS V14.01,2013-02-02 15:43:00,
2013-02-02 07:45:00,40.5,39.5,29.75,ESE,103,0.0,0.0,96,0.00,,CLR,0.01,21.00,VWS V14.01,2013-02-02 15:45:00,
2013-02-02 07:46:00,40.6,39.5,29.75,ESE,103,0.0,0.0,96,0.00,,CLR,0.01,23.00,VWS V14.01,2013-02-02 15:46:00,
2013-02-02 07:48:00,40.6,39.5,29.75,ESE,103,0.0,0.0,96,0.00,,CLR,0.01,26.00,VWS V14.01,2013-02-02 15:48:00,
2013-02-02 07:49:00,40.7,39.7,29.75,ESE,103,0.0,0.0,96,0.00,,CLR,0.01,26.00,VWS V14.01,2013-02-02 15:49:00,
2013-02-02 07:50:00,40.7,39.7,29.75,ESE,103,0.0,0.0,96,0.00,,CLR,0.01,28.00,VWS V14.01,2013-02-02 15:50:00,
2013-02-02 07:51:00,40.7,39.7,29.75,ESE,103,0.0,0.0,96,0.00,,CLR,0.01,32.00,VWS V14.01,2013-02-02 15:51:00,
2013-02-02 07:53:00,40.7,39.7,29.74,ESE,103,0.0,0.0,96,0.00,,CLR,0.01,35.00,VWS V14.01,2013-02-02 15:53:00,
2013-02-02 07:54:00,40.7,39.7,29.74,ESE,103,0.0,0.0,96,0.00,,CLR,0.01,35.00,VWS V14.01,2013-02-02 15:54:00,
2013-02-02 07:55:00,40.8,39.8,29.75,ESE,103,0.0,0.0,96,0.00,,CLR,0.01,37.00,VWS V14.01,2013-02-02 15:55:00,
2013-02-02 07:56:00,40.8,39.8,29.74,ESE,103,0.0,0.0,96,0.00,,CLR,0.01,40.00,VWS V14.01,2013-02-02 15:56:00,
2013-02-02 07:58:00,40.9,39.8,29.75,ESE,103,0.0,0.0,96,0.00,,CLR,0.01,44.00,VWS V14.01,2013-02-02 15:58:00,
2013-02-02 07:59:00,40.9,39.8,29.75,ESE,103,0.0,0.0,96,0.00,,CLR,0.01,46.00,VWS V14.01,2013-02-02 15:59:00,
2013-02-02 08:00:00,40.9,39.8,29.75,ESE,103,0.0,0.0,96,0.00,,CLR,0.01,47.00,VWS V14.01,2013-02-02 16:00:00,
2013-02-02 08:01:00,40.9,39.8,29.75,ESE,103,0.0,0.0,96,0.00,,CLR,0.01,49.00,VWS V14.01,2013-02-02 16:01:00,
2013-02-02 08:03:00,41.0,40.0,29.75,ESE,103,0.0,0.0,96,0.00,,CLR,0.01,51.00,VWS V14.01,2013-02-02 16:03:00,
2013-02-02 08:04:00,41.0,40.0,29.75,ESE,103,0.0,0.0,96,0.00,,CLR,0.01,51.00,VWS V14.01,2013-02-02 16:04:00,
2013-02-02 08:05:00,41.0,40.0,29.75,ESE,103,0.0,0.0,96,0.00,,CLR,0.01,51.00,VWS V14.01,2013-02-02 16:05:00,
2013-02-02 08:06:00,41.1,40.0,29.75,ESE,103,0.0,0.0,96,0.00,,CLR,0.01,51.00,VWS V14.01,2013-02-02 16:06:00,
2013-02-02 08:09:00,41.2,40.2,29.75,ESE,103,0.0,0.0,96,0.00,,CLR,0.01,54.00,VWS V14.01,2013-02-02 16:09:00,
2013-02-02 08:10:00,41.2,40.2,29.75,ESE,103,0.0,0.0,96,0.00,,CLR,0.01,56.00,VWS V14.01,2013-02-02 16:10:00,
2013-02-02 08:11:00,41.2,40.2,29.75,ESE,103,0.0,0.0,96,0.00,,CLR,0.01,56.00,VWS V14.01,2013-02-02 16:11:00,
2013-02-02 08:14:00,41.2,40.2,29.75,ESE,103,0.0,0.0,96,0.00,,CLR,0.01,60.00,VWS V14.01,2013-02-02 16:14:00,
2013-02-02 08:15:00,41.2,40.2,29.75,ESE,103,0.0,0.0,96,0.00,,CLR,0.01,62.00,VWS V14.01,2013-02-02 16:15:00,
2013-02-02 08:16:00,41.3,40.2,29.75,ESE,103,0.0,0.0,96,0.00,,CLR,0.01,62.00,VWS V14.01,2013-02-02 16:16:00,
2013-02-02 08:19:00,41.2,40.2,29.75,ESE,103,0.0,0.0,96,0.00,,CLR,0.01,63.00,VWS V14.01,2013-02-02 16:19:00,
2013-02-02 08:20:00,41.3,40.2,29.75,ESE,103,0.0,0.0,96,0.00,,CLR,0.01,63.00,VWS V14.01,2013-02-02 16:20:00,
2013-02-02 08:22:00,41.3,40.2,29.75,ESE,103,0.0,0.0,96,0.00,,CLR,0.01,63.00,VWS V14.01,2013-02-02 16:22:00,
2013-02-02 08:24:00,41.3,40.2,29.75,ESE,103,0.0,0.0,96,0.00,,CLR,0.01,63.00,VWS V14.01,2013-02-02 16:24:00,
2013-02-02 08:25:00,41.4,40.3,29.75,ESE,103,0.0,1.0,96,0.00,,CLR,0.01,65.00,VWS V14.01,2013-02-02 16:25:00,
2013-02-02 08:27:00,41.4,40.3,29.75,ESE,103,0.0,1.0,96,0.00,,CLR,0.01,67.00,VWS V14.01,2013-02-02 16:27:00,
2013-02-02 08:29:00,41.4,40.3,29.76,ESE,103,0.0,2.0,96,0.00,,CLR,0.01,70.00,VWS V14.01,2013-02-02 16:29:00,
2013-02-02 08:30:00,41.4,40.3,29.76,ESE,103,0.0,0.0,96,0.00,,CLR,0.01,74.00,VWS V14.01,2013-02-02 16:30:00,
2013-02-02 08:32:00,41.5,40.5,29.76,ESE,103,1.0,1.0,96,0.00,,CLR,0.01,77.00,VWS V14.01,2013-02-02 16:32:00,
2013-02-02 08:34:00,41.5,40.5,29.76,ESE,103,0.0,1.0,96,0.00,,CLR,0.01,81.00,VWS V14.01,2013-02-02 16:34:00,
2013-02-02 08:35:00,41.5,40.5,29.75,ESE,103,0.0,1.0,96,0.00,,CLR,0.01,84.00,VWS V14.01,2013-02-02 16:35:00,
2013-02-02 08:37:00,41.6,40.5,29.75,ESE,103,0.0,1.0,96,0.00,,CLR,0.01,88.00,VWS V14.01,2013-02-02 16:37:00,
2013-02-02 08:39:00,41.6,40.5,29.75,ESE,103,0.0,1.0,96,0.00,,CLR,0.01,91.00,VWS V14.01,2013-02-02 16:39:00,
2013-02-02 08:40:00,41.6,40.3,29.76,ESE,103,0.0,0.0,95,0.00,,CLR,0.01,91.00,VWS V14.01,2013-02-02 16:40:00,
2013-02-02 08:43:00,41.6,40.3,29.76,ESE,103,0.0,0.0,95,0.00,,CLR,0.01,95.00,VWS V14.01,2013-02-02 16:43:00,
2013-02-02 08:44:00,41.7,40.4,29.76,ESE,103,0.0,0.0,95,0.00,,CLR,0.01,97.00,VWS V14.01,2013-02-02 16:44:00,
2013-02-02 08:45:00,41.7,40.4,29.75,ESE,103,0.0,1.0,95,0.00,,CLR,0.01,97.00,VWS V14.01,2013-02-02 16:45:00,
2013-02-02 08:48:00,41.8,40.8,29.75,ESE,103,0.0,1.0,96,0.00,,CLR,0.01,100.00,VWS V14.01,2013-02-02 16:48:00,
2013-02-02 08:49:00,41.9,40.8,29.75,ESE,103,0.0,1.0,96,0.00,,CLR,0.01,105.00,VWS V14.01,2013-02-02 16:49:00,
2013-02-02 08:50:00,45.6,44.2,29.75,ESE,103,0.0,1.0,95,0.00,,CLR,0.01,167.00,VWS V14.01,2013-02-02 16:50:00,
2013-02-02 08:51:00,42.0,40.9,29.75,ESE,103,0.0,0.0,96,0.00,,CLR,0.01,111.00,VWS V14.01,2013-02-02 16:51:00,
2013-02-02 08:53:00,42.1,41.0,29.75,ESE,103,0.0,0.0,96,0.00,,CLR,0.01,116.00,VWS V14.01,2013-02-02 16:53:00,
2013-02-02 08:54:00,42.2,41.1,29.75,ESE,103,0.0,0.0,96,0.00,,CLR,0.01,123.00,VWS V14.01,2013-02-02 16:54:00,
2013-02-02 08:55:00,42.2,41.1,29.75,ESE,103,0.0,0.0,96,0.00,,CLR,0.01,123.00,VWS V14.01,2013-02-02 16:55:00,
2013-02-02 08:56:00,42.3,41.2,29.75,ESE,103,0.0,0.0,96,0.00,,CLR,0.01,127.00,VWS V14.01,2013-02-02 16:56:00,
2013-02-02 08:58:00,42.4,41.3,29.75,ESE,103,0.0,0.0,96,0.00,,CLR,0.01,137.00,VWS V14.01,2013-02-02 16:58:00,
2013-02-02 08:59:00,42.5,41.4,29.75,ESE,103,0.0,0.0,96,0.00,,CLR,0.01,141.00,VWS V14.01,2013-02-02 16:59:00,
2013-02-02 09:00:00,42.5,41.4,29.75,ESE,103,0.0,0.0,96,0.00,,CLR,0.01,141.00,VWS V14.01,2013-02-02 17:00:00,
2013-02-02 09:01:00,42.7,41.6,29.75,ESE,103,0.0,0.0,96,0.00,,CLR,0.01,141.00,VWS V14.01,2013-02-02 17:01:00,
2013-02-02 09:03:00,42.8,41.7,29.75,ESE,103,0.0,0.0,96,0.00,,CLR,0.01,142.00,VWS V14.01,2013-02-02 17:03:00,
2013-02-02 09:04:00,42.9,41.8,29.75,ESE,103,0.0,0.0,96,0.00,,CLR,0.01,142.00,VWS V14.01,2013-02-02 17:04:00,
2013-02-02 09:05:00,42.9,41.8,29.75,ESE,103,0.0,0.0,96,0.00,,CLR,0.01,142.00,VWS V14.01,2013-02-02 17:05:00,
2013-02-02 09:06:00,42.9,41.8,29.76,ESE,103,0.0,0.0,96,0.00,,CLR,0.01,144.00,VWS V14.01,2013-02-02 17:06:00,
2013-02-02 09:08:00,43.1,42.0,29.75,ESE,103,0.0,0.0,96,0.00,,CLR,0.01,149.00,VWS V14.01,2013-02-02 17:08:00,
2013-02-02 09:09:00,43.2,42.1,29.76,ESE,103,0.0,0.0,96,0.00,,CLR,0.01,169.00,VWS V14.01,2013-02-02 17:09:00,
2013-02-02 09:10:00,43.2,42.1,29.76,ESE,103,0.0,0.0,96,0.00,,CLR,0.01,169.00,VWS V14.01,2013-02-02 17:10:00,
2013-02-02 09:11:00,43.3,42.2,29.75,ESE,103,0.0,1.0,96,0.00,,CLR,0.01,165.00,VWS V14.01,2013-02-02 17:11:00,
2013-02-02 09:13:00,43.5,42.4,29.75,ESE,103,0.0,1.0,96,0.00,,CLR,0.01,185.00,VWS V14.01,2013-02-02 17:13:00,
2013-02-02 09:14:00,43.6,42.5,29.75,ESE,103,0.0,1.0,96,0.00,,CLR,0.01,188.00,VWS V14.01,2013-02-02 17:14:00,
2013-02-02 09:15:00,43.6,42.5,29.75,ESE,103,0.0,1.0,96,0.00,,CLR,0.01,193.00,VWS V14.01,2013-02-02 17:15:00,
2013-02-02 09:16:00,43.7,42.6,29.75,ESE,103,0.0,1.0,96,0.00,,CLR,0.01,195.00,VWS V14.01,2013-02-02 17:16:00,
2013-02-02 09:18:00,43.8,42.7,29.75,ESE,103,0.0,1.0,96,0.00,,CLR,0.01,211.00,VWS V14.01,2013-02-02 17:18:00,
2013-02-02 09:19:00,43.8,42.7,29.75,ESE,103,0.0,1.0,96,0.00,,CLR,0.01,216.00,VWS V14.01,2013-02-02 17:19:00,
2013-02-02 09:20:00,43.8,42.7,29.75,ESE,103,0.0,0.0,96,0.00,,CLR,0.01,230.00,VWS V14.01,2013-02-02 17:20:00,
2013-02-02 09:21:00,43.9,42.8,29.75,ESE,103,0.0,0.0,96,0.00,,CLR,0.01,221.00,VWS V14.01,2013-02-02 17:21:00,
2013-02-02 09:24:00,44.0,42.9,29.75,ESE,103,0.0,1.0,96,0.00,,CLR,0.01,225.00,VWS V14.01,2013-02-02 17:24:00,
2013-02-02 09:25:00,44.1,43.0,29.75,ESE,103,0.0,1.0,96,0.00,,CLR,0.01,214.00,VWS V14.01,2013-02-02 17:25:00,
2013-02-02 09:26:00,44.2,43.1,29.75,ESE,103,0.0,1.0,96,0.00,,CLR,0.01,195.00,VWS V14.01,2013-02-02 17:26:00,
2013-02-02 09:29:00,44.3,43.2,29.75,ESE,103,0.0,1.0,96,0.00,,CLR,0.01,202.00,VWS V14.01,2013-02-02 17:29:00,
2013-02-02 09:30:00,44.5,43.4,29.75,ESE,103,0.0,1.0,96,0.00,,CLR,0.01,200.00,VWS V14.01,2013-02-02 17:30:00,
2013-02-02 09:31:00,44.5,43.4,29.75,ESE,103,0.0,0.0,96,0.00,,CLR,0.01,186.00,VWS V14.01,2013-02-02 17:31:00,
2013-02-02 09:34:00,44.7,43.6,29.75,ESE,103,0.0,1.0,96,0.00,,CLR,0.01,181.00,VWS V14.01,2013-02-02 17:34:00,
2013-02-02 09:35:00,44.8,43.7,29.75,ESE,103,0.0,1.0,96,0.00,,CLR,0.01,181.00,VWS V14.01,2013-02-02 17:35:00,
2013-02-02 09:36:00,44.8,43.7,29.75,ESE,103,1.0,1.0,96,0.00,,CLR,0.01,181.00,VWS V14.01,2013-02-02 17:36:00,
2013-02-02 09:39:00,45.0,43.9,29.75,ESE,103,0.0,1.0,96,0.00,,CLR,0.01,179.00,VWS V14.01,2013-02-02 17:39:00,
2013-02-02 09:40:00,45.0,43.7,29.75,ESE,103,0.0,0.0,95,0.00,,CLR,0.01,179.00,VWS V14.01,2013-02-02 17:40:00,
2013-02-02 09:41:00,45.0,43.7,29.75,ESE,103,0.0,0.0,95,0.00,,CLR,0.01,179.00,VWS V14.01,2013-02-02 17:41:00,
2013-02-02 09:44:00,45.2,43.9,29.75,ESE,103,0.0,1.0,95,0.00,,CLR,0.01,186.00,VWS V14.01,2013-02-02 17:44:00,
2013-02-02 09:45:00,45.2,43.9,29.75,ESE,103,0.0,1.0,95,0.00,,CLR,0.01,190.00,VWS V14.01,2013-02-02 17:45:00,
2013-02-02 09:46:00,45.3,44.0,29.75,ESE,103,0.0,1.0,95,0.00,,CLR,0.01,186.00,VWS V14.01,2013-02-02 17:46:00,
2013-02-02 09:49:00,45.5,44.2,29.75,ESE,103,0.0,1.0,95,0.00,,CLR,0.01,167.00,VWS V14.01,2013-02-02 17:49:00,
2013-02-02 09:50:00,45.6,44.2,29.75,ESE,103,0.0,0.0,95,0.00,,CLR,0.01,167.00,VWS V14.01,2013-02-02 17:50:00,
2013-02-02 09:51:00,45.7,44.3,29.75,ESE,103,0.0,0.0,95,0.00,,CLR,0.01,169.00,VWS V14.01,2013-02-02 17:51:00,
2013-02-02 09:54:00,45.9,44.5,29.75,ESE,103,0.0,1.0,95,0.00,,CLR,0.01,174.00,VWS V14.01,2013-02-02 17:54:00,
2013-02-02 09:55:00,46.0,44.7,29.75,ESE,103,0.0,1.0,95,0.00,,CLR,0.01,174.00,VWS V14.01,2013-02-02 17:55:00,
2013-02-02 09:56:00,46.0,44.7,29.75,ESE,103,0.0,1.0,95,0.00,,CLR,0.01,174.00,VWS V14.01,2013-02-02 17:56:00,
2013-02-02 09:59:00,46.4,45.0,29.75,SE,136,0.0,2.0,95,0.00,,CLR,0.01,172.00,VWS V14.01,2013-02-02 17:59:00,
2013-02-02 10:00:00,46.5,45.2,29.75,South,171,3.0,3.0,95,0.00,,CLR,0.01,171.00,VWS V14.01,2013-02-02 18:00:00,
2013-02-02 10:01:00,46.5,44.9,29.75,SE,139,0.0,3.0,94,0.00,,CLR,0.01,171.00,VWS V14.01,2013-02-02 18:01:00,
2013-02-02 10:04:00,46.8,45.2,29.76,SE,142,1.0,4.0,94,0.00,,CLR,0.01,172.00,VWS V14.01,2013-02-02 18:04:00,
2013-02-02 10:05:00,46.9,45.3,29.75,South,186,1.0,4.0,94,0.00,,CLR,0.01,172.00,VWS V14.01,2013-02-02 18:05:00,
2013-02-02 10:06:00,46.9,45.0,29.75,South,186,0.0,4.0,93,0.00,,CLR,0.01,172.00,VWS V14.01,2013-02-02 18:06:00,
2013-02-02 10:10:00,47.3,45.4,29.75,SE,140,0.0,4.0,93,0.00,,CLR,0.01,185.00,VWS V14.01,2013-02-02 18:10:00,
2013-02-02 10:11:00,47.4,45.5,29.75,SE,140,0.0,0.0,93,0.00,,CLR,0.01,188.00,VWS V14.01,2013-02-02 18:11:00,
2013-02-02 10:15:00,47.7,45.8,29.76,SSE,150,0.0,0.0,93,0.00,,CLR,0.01,211.00,VWS V14.01,2013-02-02 18:15:00,
2013-02-02 10:16:00,47.8,45.9,29.76,SSE,150,0.0,0.0,93,0.00,,CLR,0.01,214.00,VWS V14.01,2013-02-02 18:16:00,
2013-02-02 10:20:00,53.6,49.2,29.75,SE,135,0.0,1.0,85,0.00,,CLR,0.01,416.00,VWS V14.01,2013-02-02 18:20:00,
2013-02-02 10:21:00,48.3,46.1,29.76,SSE,162,0.0,0.0,92,0.00,,CLR,0.01,271.00,VWS V14.01,2013-02-02 18:21:00,
2013-02-02 10:22:00,48.3,46.1,29.76,SSE,162,0.0,0.0,92,0.00,,CLR,0.01,281.00,VWS V14.01,2013-02-02 18:22:00,
2013-02-02 10:26:00,48.7,46.5,29.76,SSE,162,0.0,0.0,92,0.00,,CLR,0.01,295.00,VWS V14.01,2013-02-02 18:26:00,
2013-02-02 10:30:00,49.1,46.9,29.76,SSE,158,0.0,3.0,92,0.00,,CLR,0.01,288.00,VWS V14.01,2013-02-02 18:30:00,
2013-02-02 10:40:00,49.7,46.9,29.76,SE,135,0.0,3.0,90,0.00,,CLR,0.01,255.00,VWS V14.01,2013-02-02 18:40:00,
2013-02-02 10:50:00,50.1,47.3,29.76,SE,135,0.0,2.0,90,0.00,,CLR,0.01,251.00,VWS V14.01,2013-02-02 18:50:00,
2013-02-02 11:00:00,50.7,47.6,29.76,SE,135,0.0,3.0,89,0.00,,CLR,0.01,280.00,VWS V14.01,2013-02-02 19:00:00,
2013-02-02 11:10:00,51.8,48.1,29.76,SE,135,0.0,1.0,87,0.00,,CLR,0.01,328.00,VWS V14.01,2013-02-02 19:10:00,
2013-02-02 11:20:00,53.6,49.2,29.75,SE,135,0.0,1.0,85,0.00,,CLR,0.01,416.00,VWS V14.01,2013-02-02 19:20:00,
2013-02-02 11:30:00,54.9,49.2,29.75,South,180,0.0,3.0,81,0.00,,CLR,0.01,406.00,VWS V14.01,2013-02-02 19:30:00,
2013-02-02 11:40:00,55.5,48.8,29.76,SSW,202,0.0,2.0,78,0.00,,CLR,0.01,439.00,VWS V14.01,2013-02-02 19:40:00,
2013-02-02 11:50:00,56.2,49.4,29.75,SW,225,0.0,3.0,78,0.00,,CLR,0.01,372.00,VWS V14.01,2013-02-02 19:50:00,
2013-02-02 12:00:00,56.8,50.0,29.74,SSW,202,0.0,2.0,78,0.00,,CLR,0.01,354.00,VWS V14.01,2013-02-02 20:00:00,
2013-02-02 12:10:00,57.2,50.1,29.73,SSW,202,0.0,1.0,77,0.00,,CLR,0.01,295.00,VWS V14.01,2013-02-02 20:10:00,
2013-02-02 12:20:00,57.2,50.1,29.72,SSW,202,0.0,2.0,77,0.00,,CLR,0.01,277.00,VWS V14.01,2013-02-02 20:20:00,
2013-02-02 12:30:00,57.7,49.8,29.72,SSW,202,0.0,1.0,75,0.00,,CLR,0.01,292.00,VWS V14.01,2013-02-02 20:30:00,
2013-02-02 12:40:00,57.8,49.6,29.72,SSW,202,0.0,1.0,74,0.00,,CLR,0.01,287.00,VWS V14.01,2013-02-02 20:40:00,
2013-02-02 12:50:00,58.7,49.3,29.71,SSW,202,0.0,2.0,71,0.00,,CLR,0.01,298.00,VWS V14.01,2013-02-02 20:50:00,
2013-02-02 13:00:00,60.0,50.2,29.70,SSW,202,0.0,3.0,70,0.00,,CLR,0.01,415.00,VWS V14.01,2013-02-02 21:00:00,
2013-02-02 13:10:00,60.6,51.9,29.71,SE,135,1.0,3.0,73,0.00,,CLR,0.01,421.00,VWS V14.01,2013-02-02 21:10:00,
2013-02-02 13:20:00,60.7,51.6,29.71,SSE,158,1.0,6.0,72,0.00,,CLR,0.01,569.00,VWS V14.01,2013-02-02 21:20:00,
2013-02-02 13:30:00,59.6,51.3,29.71,SE,135,3.0,10.0,74,0.00,,CLR,0.01,573.00,VWS V14.01,2013-02-02 21:30:00,
2013-02-02 13:40:00,58.6,50.3,29.71,ESE,112,3.0,10.0,74,0.00,,CLR,0.01,546.00,VWS V14.01,2013-02-02 21:40:00,
2013-02-02 13:50:00,57.8,50.3,29.71,ESE,112,2.0,9.0,76,0.00,,CLR,0.01,431.00,VWS V14.01,2013-02-02 21:50:00,
2013-02-02 14:00:00,56.8,49.7,29.71,SSE,158,2.0,10.0,77,0.00,,CLR,0.01,336.00,VWS V14.01,2013-02-02 22:00:00,
2013-02-02 14:10:00,56.3,49.9,29.71,South,180,2.0,6.0,79,0.00,,CLR,0.01,346.00,VWS V14.01,2013-02-02 22:10:00,
2013-02-02 14:20:00,56.6,50.2,29.71,SSE,158,1.0,5.0,79,0.00,,CLR,0.01,345.00,VWS V14.01,2013-02-02 22:20:00,
2013-02-02 14:30:00,57.1,50.3,29.71,SSE,158,1.0,4.0,78,0.00,,CLR,0.01,281.00,VWS V14.01,2013-02-02 22:30:00,
2013-02-02 14:40:00,57.1,50.3,29.71,SE,135,0.0,5.0,78,0.00,,CLR,0.01,276.00,VWS V14.01,2013-02-02 22:40:00,
2013-02-02 14:50:00,57.4,50.6,29.71,SSE,158,0.0,4.0,78,0.00,,CLR,0.01,277.00,VWS V14.01,2013-02-02 22:50:00,
2013-02-02 15:00:00,57.4,50.3,29.71,ESE,112,1.0,4.0,77,0.00,,CLR,0.01,295.00,VWS V14.01,2013-02-02 23:00:00,
2013-02-02 15:10:00,58.2,50.0,29.70,ESE,112,0.0,1.0,74,0.00,,CLR,0.01,313.00,VWS V14.01,2013-02-02 23:10:00,
2013-02-02 15:20:00,61.8,51.5,29.70,SSE,166,1.0,5.0,69,0.00,,CLR,0.01,192.00,VWS V14.01,2013-02-02 23:20:00,
2013-02-02 15:28:00,59.4,49.6,29.69,ESE,107,0.0,0.0,70,0.00,,CLR,0.01,209.00,VWS V14.01,2013-02-02 23:28:00,
2013-02-02 15:30:00,61.0,51.9,29.70,ESE,108,4.0,5.0,72,0.00,,CLR,0.01,181.00,VWS V14.01,2013-02-02 23:30:00,
2013-02-02 15:33:00,59.6,50.2,29.70,ESE,107,0.0,0.0,71,0.00,,CLR,0.01,206.00,VWS V14.01,2013-02-02 23:33:00,
2013-02-02 15:38:00,59.9,50.5,29.70,ESE,107,0.0,1.0,71,0.00,,CLR,0.01,183.00,VWS V14.01,2013-02-02 23:38:00,
2013-02-02 15:40:00,59.7,50.7,29.70,ESE,121,3.0,7.0,72,0.00,,CLR,0.01,81.00,VWS V14.01,2013-02-02 23:40:00,
2013-02-02 15:43:00,60.4,50.6,29.70,ESE,107,0.0,1.0,70,0.00,,CLR,0.01,204.00,VWS V14.01,2013-02-02 23:43:00,
2013-02-02 15:48:00,60.6,50.4,29.70,ESE,107,0.0,1.0,69,0.00,,CLR,0.01,220.00,VWS V14.01,2013-02-02 23:48:00,
2013-02-02 15:50:00,57.6,50.1,29.70,ESE,113,3.0,6.0,76,0.00,,CLR,0.01,58.00,VWS V14.01,2013-02-02 23:50:00,
2013-02-02 15:53:00,60.8,50.6,29.69,ESE,107,0.0,1.0,69,0.00,,CLR,0.01,257.00,VWS V14.01,2013-02-02 23:53:00,
2013-02-02 15:58:00,61.0,50.4,29.70,ESE,107,0.0,1.0,68,0.00,,CLR,0.01,257.00,VWS V14.01,2013-02-02 23:58:00,
2013-02-02 16:00:00,56.2,49.8,29.70,SE,132,0.0,4.0,79,0.00,,CLR,0.01,47.00,VWS V14.01,2013-02-03 00:00:00,
2013-02-02 16:03:00,61.1,50.1,29.70,ESE,107,0.0,1.0,67,0.00,,CLR,0.01,251.00,VWS V14.01,2013-02-03 00:03:00,
2013-02-02 16:08:00,61.5,50.0,29.70,ESE,107,0.0,1.0,66,0.00,,CLR,0.01,269.00,VWS V14.01,2013-02-03 00:08:00,
2013-02-02 16:10:00,55.2,49.2,29.71,ESE,115,0.0,4.0,80,0.00,,CLR,0.01,26.00,VWS V14.01,2013-02-03 00:10:00,
2013-02-02 16:13:00,62.0,51.3,29.70,ESE,107,0.0,1.0,68,0.00,,CLR,0.01,262.00,VWS V14.01,2013-02-03 00:13:00,
2013-02-02 16:18:00,62.0,51.3,29.70,ESE,107,3.0,3.0,68,0.00,,CLR,0.01,193.00,VWS V14.01,2013-02-03 00:18:00,
2013-02-02 16:19:00,62.0,51.3,29.70,ESE,109,4.0,4.0,68,0.00,,CLR,0.01,193.00,VWS V14.01,2013-02-03 00:19:00,
2013-02-02 16:20:00,54.2,48.5,29.70,ESE,115,0.0,2.0,81,0.00,,CLR,0.01,11.00,VWS V14.01,2013-02-03 00:20:00,
2013-02-02 16:23:00,61.5,51.6,29.70,South,174,0.0,5.0,70,0.00,,CLR,0.01,183.00,VWS V14.01,2013-02-03 00:23:00,
2013-02-02 16:24:00,61.5,51.6,29.70,South,174,1.0,5.0,70,0.00,,CLR,0.01,183.00,VWS V14.01,2013-02-03 00:24:00,
2013-02-02 16:28:00,61.1,52.0,29.70,ESE,113,2.0,5.0,72,0.00,,CLR,0.01,176.00,VWS V14.01,2013-02-03 00:28:00,
2013-02-02 16:29:00,61.1,52.0,29.70,ESE,113,2.0,5.0,72,0.00,,CLR,0.01,174.00,VWS V14.01,2013-02-03 00:29:00,
2013-02-02 16:30:00,53.7,48.7,29.71,ESE,115,0.0,1.0,83,0.00,,CLR,0.01,7.00,VWS V14.01,2013-02-03 00:30:00,
2013-02-02 16:33:00,60.5,51.4,29.70,SE,126,2.0,5.0,72,0.00,,CLR,0.01,181.00,VWS V14.01,2013-02-03 00:33:00,
2013-02-02 16:34:00,60.5,51.4,29.70,ESE,122,3.0,6.0,72,0.00,,CLR,0.01,151.00,VWS V14.01,2013-02-03 00:34:00,
2013-02-02 16:38:00,59.9,51.2,29.70,ESE,119,6.0,6.0,73,0.00,,CLR,0.01,93.00,VWS V14.01,2013-02-03 00:38:00,
2013-02-02 16:39:00,59.9,51.2,29.70,ESE,123,7.0,7.0,73,0.00,,CLR,0.01,86.00,VWS V14.01,2013-02-03 00:39:00,
2013-02-02 16:40:00,53.2,48.2,29.71,ESE,115,0.0,0.0,83,0.00,,CLR,0.01,0.00,VWS V14.01,2013-02-03 00:40:00,
2013-02-02 16:44:00,58.7,50.5,29.70,SE,129,2.0,5.0,74,0.00,,CLR,0.01,69.00,VWS V14.01,2013-02-03 00:44:00,
2013-02-02 16:49:00,57.8,50.3,29.70,ESE,121,0.0,6.0,76,0.00,,CLR,0.01,60.00,VWS V14.01,2013-02-03 00:49:00,
2013-02-02 16:50:00,52.7,48.3,29.71,ESE,115,0.0,1.0,85,0.00,,CLR,0.01,0.00,VWS V14.01,2013-02-03 00:50:00,
2013-02-02 16:54:00,57.0,49.9,29.70,SSE,163,0.0,4.0,77,0.00,,CLR,0.01,56.00,VWS V14.01,2013-02-03 00:54:00,
2013-02-02 16:55:00,56.8,50.0,29.70,SE,127,1.0,4.0,78,0.00,,CLR,0.01,56.00,VWS V14.01,2013-02-03 00:55:00,
2013-02-02 16:59:00,56.3,49.9,29.70,SE,132,0.0,4.0,79,0.00,,CLR,0.01,49.00,VWS V14.01,2013-02-03 00:59:00,
2013-02-02 17:00:00,56.2,49.8,29.70,SE,132,0.0,4.0,79,0.00,,CLR,0.01,47.00,VWS V14.01,2013-02-03 01:00:00,
2013-02-02 17:04:00,55.8,49.4,29.70,SE,144,0.0,4.0,79,0.00,,CLR,0.01,37.00,VWS V14.01,2013-02-03 01:04:00,
2013-02-02 17:05:00,55.7,49.6,29.70,SE,144,0.0,4.0,80,0.00,,CLR,0.01,35.00,VWS V14.01,2013-02-03 01:05:00,
2013-02-02 17:09:00,55.3,49.2,29.71,ESE,114,1.0,4.0,80,0.00,,CLR,0.01,26.00,VWS V14.01,2013-02-03 01:09:00,
2013-02-02 17:10:00,55.1,49.0,29.71,ESE,115,0.0,0.0,80,0.00,,CLR,0.01,26.00,VWS V14.01,2013-02-03 01:10:00,
2013-02-02 17:14:00,54.8,49.1,29.71,ESE,115,0.0,2.0,81,0.00,,CLR,0.01,19.00,VWS V14.01,2013-02-03 01:14:00,
2013-02-02 17:15:00,54.7,49.0,29.71,ESE,115,0.0,2.0,81,0.00,,CLR,0.01,18.00,VWS V14.01,2013-02-03 01:15:00,
2013-02-02 17:19:00,54.3,48.6,29.70,ESE,115,0.0,2.0,81,0.00,,CLR,0.01,11.00,VWS V14.01,2013-02-03 01:19:00,
2013-02-02 17:20:00,54.2,48.5,29.70,ESE,115,0.0,2.0,81,0.00,,CLR,0.01,11.00,VWS V14.01,2013-02-03 01:20:00,
2013-02-02 17:24:00,54.0,48.6,29.71,ESE,115,0.0,1.0,82,0.00,,CLR,0.01,7.00,VWS V14.01,2013-02-03 01:24:00,
2013-02-02 17:25:00,53.9,48.5,29.71,ESE,115,0.0,1.0,82,0.00,,CLR,0.01,7.00,VWS V14.01,2013-02-03 01:25:00,
2013-02-02 17:29:00,53.7,48.7,29.71,ESE,115,0.0,1.0,83,0.00,,CLR,0.01,7.00,VWS V14.01,2013-02-03 01:29:00,
2013-02-02 17:30:00,53.7,48.7,29.71,ESE,115,0.0,1.0,83,0.00,,CLR,0.01,7.00,VWS V14.01,2013-02-03 01:30:00,
2013-02-02 17:34:00,53.5,48.5,29.71,ESE,115,0.0,0.0,83,0.00,,CLR,0.01,5.00,VWS V14.01,2013-02-03 01:34:00,
2013-02-02 17:35:00,53.5,48.5,29.71,ESE,115,0.0,0.0,83,0.00,,CLR,0.01,5.00,VWS V14.01,2013-02-03 01:35:00,
2013-02-02 17:39:00,53.2,48.2,29.71,ESE,115,0.0,0.0,83,0.00,,CLR,0.01,0.00,VWS V14.01,2013-02-03 01:39:00,
2013-02-02 17:40:00,53.2,48.2,29.71,ESE,115,0.0,0.0,83,0.00,,CLR,0.01,0.00,VWS V14.01,2013-02-03 01:40:00,
2013-02-02 17:44:00,53.0,48.3,29.71,ESE,115,0.0,1.0,84,0.00,,CLR,0.01,0.00,VWS V14.01,2013-02-03 01:44:00,
2013-02-02 17:45:00,53.0,48.3,29.71,ESE,115,0.0,1.0,84,0.00,,CLR,0.01,0.00,VWS V14.01,2013-02-03 01:45:00,
2013-02-02 17:49:00,52.7,48.3,29.71,ESE,115,0.0,1.0,85,0.00,,CLR,0.01,0.00,VWS V14.01,2013-02-03 01:49:00,
2013-02-02 17:50:00,52.7,48.3,29.71,ESE,115,0.0,1.0,85,0.00,,CLR,0.01,0.00,VWS V14.01,2013-02-03 01:50:00,
2013-02-02 17:55:00,52.5,48.1,29.71,ESE,115,0.0,0.0,85,0.00,,CLR,0.01,0.00,VWS V14.01,2013-02-03 01:55:00,
2013-02-02 18:00:00,52.1,47.7,29.71,ESE,115,0.0,0.0,85,0.00,,CLR,0.01,0.00,VWS V14.01,2013-02-03 02:00:00,
2013-02-02 18:01:00,52.0,48.0,29.70,ESE,115,0.0,0.0,86,0.00,,CLR,0.01,0.00,VWS V14.01,2013-02-03 02:01:00,
2013-02-02 18:05:00,51.7,47.7,29.71,ESE,115,0.0,0.0,86,0.00,,CLR,0.01,0.00,VWS V14.01,2013-02-03 02:05:00,
2013-02-02 18:06:00,51.7,48.0,29.71,ESE,115,0.0,0.0,87,0.00,,CLR,0.01,0.00,VWS V14.01,2013-02-03 02:06:00,
2013-02-02 18:10:00,51.5,47.8,29.70,ESE,115,0.0,0.0,87,0.00,,CLR,0.01,0.00,VWS V14.01,2013-02-03 02:10:00,
2013-02-02 18:11:00,51.4,47.7,29.71,ESE,115,0.0,0.0,87,0.00,,CLR,0.01,0.00,VWS V14.01,2013-02-03 02:11:00,
2013-02-02 18:15:00,51.2,47.5,29.71,ESE,115,0.0,0.0,87,0.00,,CLR,0.01,0.00,VWS V14.01,2013-02-03 02:15:00,
2013-02-02 18:16:00,51.2,47.5,29.71,ESE,115,0.0,0.0,87,0.00,,CLR,0.01,0.00,VWS V14.01,2013-02-03 02:16:00,
2013-02-02 18:20:00,50.9,47.2,29.71,ESE,115,0.0,0.0,87,0.00,,CLR,0.01,0.00,VWS V14.01,2013-02-03 02:20:00,
2013-02-02 18:21:00,50.9,47.5,29.71,ESE,115,0.0,0.0,88,0.00,,CLR,0.01,0.00,VWS V14.01,2013-02-03 02:21:00,
2013-02-02 18:25:00,50.7,47.3,29.71,ESE,115,0.0,0.0,88,0.00,,CLR,0.01,0.00,VWS V14.01,2013-02-03 02:25:00,
2013-02-02 18:26:00,50.6,47.2,29.71,ESE,115,0.0,0.0,88,0.00,,CLR,0.01,0.00,VWS V14.01,2013-02-03 02:26:00,
2013-02-02 18:30:00,50.5,47.1,29.71,ESE,115,0.0,0.0,88,0.00,,CLR,0.01,0.00,VWS V14.01,2013-02-03 02:30:00,
2013-02-02 18:31:00,50.4,47.0,29.71,ESE,115,0.0,0.0,88,0.00,,CLR,0.01,0.00,VWS V14.01,2013-02-03 02:31:00,
2013-02-02 18:35:00,50.3,47.2,29.71,ESE,115,0.0,0.0,89,0.00,,CLR,0.01,0.00,VWS V14.01,2013-02-03 02:35:00,
2013-02-02 18:36:00,50.2,47.1,29.71,ESE,115,0.0,0.0,89,0.00,,CLR,0.01,0.00,VWS V14.01,2013-02-03 02:36:00,
2013-02-02 18:40:00,50.0,46.9,29.70,ESE,115,0.0,0.0,89,0.00,,CLR,0.01,0.00,VWS V14.01,2013-02-03 02:40:00,
2013-02-02 18:41:00,50.1,47.0,29.70,ESE,115,0.0,0.0,89,0.00,,CLR,0.01,0.00,VWS V14.01,2013-02-03 02:41:00,
2013-02-02 18:42:00,50.0,46.9,29.71,ESE,115,0.0,0.0,89,0.00,,CLR,0.01,0.00,VWS V14.01,2013-02-03 02:42:00,
2013-02-02 18:45:00,49.9,46.8,29.70,ESE,115,0.0,0.0,89,0.00,,CLR,0.01,0.00,VWS V14.01,2013-02-03 02:45:00,
2013-02-02 18:46:00,49.9,46.8,29.70,ESE,115,0.0,0.0,89,0.00,,CLR,0.01,0.00,VWS V14.01,2013-02-03 02:46:00,
2013-02-02 18:47:00,49.9,47.1,29.71,ESE,115,0.0,0.0,90,0.00,,CLR,0.01,0.00,VWS V14.01,2013-02-03 02:47:00,
2013-02-02 18:50:00,49.7,46.9,29.70,ESE,115,0.0,0.0,90,0.00,,CLR,0.01,0.00,VWS V14.01,2013-02-03 02:50:00,
2013-02-02 18:51:00,49.7,46.9,29.70,ESE,115,0.0,0.0,90,0.00,,CLR,0.01,0.00,VWS V14.01,2013-02-03 02:51:00,
2013-02-02 18:52:00,49.7,46.9,29.70,ESE,115,0.0,0.0,90,0.00,,CLR,0.01,0.00,VWS V14.01,2013-02-03 02:52:00,
2013-02-02 18:55:00,49.6,46.8,29.70,ESE,115,0.0,0.0,90,0.00,,CLR,0.01,0.00,VWS V14.01,2013-02-03 02:55:00,
2013-02-02 18:56:00,49.6,46.8,29.70,ESE,115,0.0,0.0,90,0.00,,CLR,0.01,0.00,VWS V14.01,2013-02-03 02:56:00,
2013-02-02 18:57:00,49.5,46.7,29.70,ESE,115,0.0,0.0,90,0.00,,CLR,0.01,0.00,VWS V14.01,2013-02-03 02:57:00,
2013-02-02 19:00:00,49.4,46.6,29.70,ESE,115,0.0,0.0,90,0.00,,CLR,0.01,0.00,VWS V14.01,2013-02-03 03:00:00,
2013-02-02 19:01:00,49.4,46.6,29.70,ESE,115,0.0,0.0,90,0.00,,CLR,0.01,0.00,VWS V14.01,2013-02-03 03:01:00,
2013-02-02 19:02:00,49.4,46.6,29.70,ESE,115,0.0,0.0,90,0.00,,CLR,0.01,0.00,VWS V14.01,2013-02-03 03:02:00,
2013-02-02 19:05:00,49.3,46.8,29.70,ESE,115,0.0,0.0,91,0.00,,CLR,0.01,0.00,VWS V14.01,2013-02-03 03:05:00,
2013-02-02 19:06:00,49.2,46.7,29.70,ESE,115,0.0,0.0,91,0.00,,CLR,0.01,0.00,VWS V14.01,2013-02-03 03:06:00,
2013-02-02 19:07:00,49.2,46.7,29.70,ESE,115,0.0,0.0,91,0.00,,CLR,0.01,0.00,VWS V14.01,2013-02-03 03:07:00,
2013-02-02 19:10:00,48.3,46.4,29.70,ESE,115,0.0,0.0,93,0.00,,CLR,0.01,0.00,VWS V14.01,2013-02-03 03:10:00,
2013-02-02 19:11:00,49.1,46.6,29.70,ESE,115,0.0,0.0,91,0.00,,CLR,0.01,0.00,VWS V14.01,2013-02-03 03:11:00,
2013-02-02 19:12:00,49.0,46.5,29.70,ESE,115,0.0,0.0,91,0.00,,CLR,0.01,0.00,VWS V14.01,2013-02-03 03:12:00,
2013-02-02 19:16:00,49.0,46.5,29.70,ESE,115,0.0,0.0,91,0.00,,CLR,0.01,0.00,VWS V14.01,2013-02-03 03:16:00,
2013-02-02 19:17:00,48.9,46.4,29.70,ESE,115,0.0,0.0,91,0.00,,CLR,0.01,0.00,VWS V14.01,2013-02-03 03:17:00,
2013-02-02 19:20:00,48.1,46.2,29.71,ESE,115,0.0,0.0,93,0.00,,CLR,0.01,0.00,VWS V14.01,2013-02-03 03:20:00,
2013-02-02 19:21:00,48.8,46.3,29.70,ESE,115,0.0,0.0,91,0.00,,CLR,0.01,0.00,VWS V14.01,2013-02-03 03:21:00,
2013-02-02 19:22:00,48.8,46.3,29.70,ESE,115,0.0,0.0,91,0.00,,CLR,0.01,0.00,VWS V14.01,2013-02-03 03:22:00,
2013-02-02 19:26:00,48.6,46.1,29.70,ESE,115,0.0,0.0,91,0.00,,CLR,0.01,0.00,VWS V14.01,2013-02-03 03:26:00,
2013-02-02 19:27:00,48.6,46.1,29.70,ESE,115,0.0,0.0,91,0.00,,CLR,0.01,0.00,VWS V14.01,2013-02-03 03:27:00,
2013-02-02 19:30:00,48.0,46.1,29.70,ESE,115,0.0,0.0,93,0.00,,CLR,0.01,0.00,VWS V14.01,2013-02-03 03:30:00,
2013-02-02 19:31:00,48.5,46.0,29.70,ESE,115,0.0,1.0,91,0.00,,CLR,0.01,0.00,VWS V14.01,2013-02-03 03:31:00,
2013-02-02 19:32:00,48.5,46.3,29.70,ESE,115,0.0,1.0,92,0.00,,CLR,0.01,0.00,VWS V14.01,2013-02-03 03:32:00,
2013-02-02 19:33:00,48.5,46.3,29.70,ESE,115,0.0,1.0,92,0.00,,CLR,0.01,0.00,VWS V14.01,2013-02-03 03:33:00,
2013-02-02 19:36:00,48.5,46.3,29.70,ESE,115,0.0,1.0,92,0.00,,CLR,0.01,0.00,VWS V14.01,2013-02-03 03:36:00,
2013-02-02 19:37:00,48.5,46.3,29.70,ESE,115,0.0,1.0,92,0.00,,CLR,0.01,0.00,VWS V14.01,2013-02-03 03:37:00,
2013-02-02 19:38:00,48.4,46.2,29.70,ESE,115,0.0,1.0,92,0.00,,CLR,0.01,0.00,VWS V14.01,2013-02-03 03:38:00,
2013-02-02 19:40:00,47.7,45.8,29.71,ESE,115,0.0,1.0,93,0.00,,CLR,0.01,0.00,VWS V14.01,2013-02-03 03:40:00,
2013-02-02 19:41:00,48.4,46.2,29.70,ESE,115,0.0,0.0,92,0.00,,CLR,0.01,0.00,VWS V14.01,2013-02-03 03:41:00,
2013-02-02 19:42:00,48.4,46.2,29.71,ESE,115,0.0,0.0,92,0.00,,CLR,0.01,0.00,VWS V14.01,2013-02-03 03:42:00,
2013-02-02 19:43:00,48.4,46.2,29.71,ESE,115,0.0,0.0,92,0.00,,CLR,0.01,0.00,VWS V14.01,2013-02-03 03:43:00,
2013-02-02 19:46:00,48.3,46.1,29.71,ESE,115,0.0,0.0,92,0.00,,CLR,0.01,0.00,VWS V14.01,2013-02-03 03:46:00,
2013-02-02 19:47:00,48.3,46.1,29.71,ESE,115,0.0,0.0,92,0.00,,CLR,0.01,0.00,VWS V14.01,2013-02-03 03:47:00,
2013-02-02 19:48:00,48.3,46.1,29.71,ESE,115,0.0,0.0,92,0.00,,CLR,0.01,0.00,VWS V14.01,2013-02-03 03:48:00,
2013-02-02 19:50:00,47.5,45.6,29.71,ESE,115,0.0,0.0,93,0.00,,CLR,0.01,0.00,VWS V14.01,2013-02-03 03:50:00,
2013-02-02 19:52:00,48.3,46.1,29.71,ESE,115,0.0,0.0,92,0.00,,CLR,0.01,0.00,VWS V14.01,2013-02-03 03:52:00,
2013-02-02 19:53:00,48.3,46.1,29.71,ESE,115,0.0,0.0,92,0.00,,CLR,0.01,0.00,VWS V14.01,2013-02-03 03:53:00,
2013-02-02 19:57:00,48.3,46.4,29.71,ESE,115,0.0,0.0,93,0.00,,CLR,0.01,0.00,VWS V14.01,2013-02-03 03:57:00,
2013-02-02 19:58:00,48.3,46.4,29.71,ESE,115,0.0,0.0,93,0.00,,CLR,0.01,0.00,VWS V14.01,2013-02-03 03:58:00,
2013-02-02 20:00:00,47.3,45.7,29.70,ESE,115,0.0,0.0,94,0.00,,CLR,0.01,0.00,VWS V14.01,2013-02-03 04:00:00,
2013-02-02 20:02:00,48.3,46.4,29.71,ESE,115,0.0,0.0,93,0.00,,CLR,0.01,0.00,VWS V14.01,2013-02-03 04:02:00,
2013-02-02 20:03:00,48.3,46.4,29.71,ESE,115,0.0,0.0,93,0.00,,CLR,0.01,0.00,VWS V14.01,2013-02-03 04:03:00,
2013-02-02 20:07:00,48.3,46.4,29.71,ESE,115,0.0,0.0,93,0.00,,CLR,0.01,0.00,VWS V14.01,2013-02-03 04:07:00,
2013-02-02 20:08:00,48.3,46.4,29.71,ESE,115,0.0,0.0,93,0.00,,CLR,0.01,0.00,VWS V14.01,2013-02-03 04:08:00,
2013-02-02 20:10:00,47.3,45.7,29.70,ESE,115,0.0,0.0,94,0.00,,CLR,0.01,0.00,VWS V14.01,2013-02-03 04:10:00,
2013-02-02 20:12:00,48.2,46.3,29.70,ESE,115,0.0,0.0,93,0.00,,CLR,0.01,0.00,VWS V14.01,2013-02-03 04:12:00,
2013-02-02 20:13:00,48.2,46.3,29.70,ESE,115,0.0,0.0,93,0.00,,CLR,0.01,0.00,VWS V14.01,2013-02-03 04:13:00,
2013-02-02 20:17:00,48.2,46.3,29.71,ESE,115,0.0,0.0,93,0.00,,CLR,0.01,0.00,VWS V14.01,2013-02-03 04:17:00,
2013-02-02 20:18:00,48.2,46.3,29.70,ESE,115,0.0,0.0,93,0.00,,CLR,0.01,0.00,VWS V14.01,2013-02-03 04:18:00,
2013-02-02 20:20:00,47.1,45.5,29.71,ESE,115,0.0,0.0,94,0.00,,CLR,0.01,0.00,VWS V14.01,2013-02-03 04:20:00,
2013-02-02 20:22:00,48.1,46.2,29.71,ESE,115,0.0,0.0,93,0.00,,CLR,0.01,0.00,VWS V14.01,2013-02-03 04:22:00,
2013-02-02 20:23:00,48.1,46.2,29.71,ESE,115,0.0,0.0,93,0.00,,CLR,0.01,0.00,VWS V14.01,2013-02-03 04:23:00,
2013-02-02 20:27:00,48.0,46.1,29.70,ESE,115,0.0,0.0,93,0.00,,CLR,0.01,0.00,VWS V14.01,2013-02-03 04:27:00,
2013-02-02 20:28:00,48.0,46.1,29.70,ESE,115,0.0,0.0,93,0.00,,CLR,0.01,0.00,VWS V14.01,2013-02-03 04:28:00,
2013-02-02 20:30:00,46.7,45.1,29.71,ESE,115,0.0,0.0,94,0.00,,CLR,0.01,0.00,VWS V14.01,2013-02-03 04:30:00,
2013-02-02 20:32:00,47.9,46.0,29.71,ESE,115,0.0,1.0,93,0.00,,CLR,0.01,0.00,VWS V14.01,2013-02-03 04:32:00,
2013-02-02 20:34:00,47.8,45.9,29.71,ESE,115,0.0,1.0,93,0.00,,CLR,0.01,0.00,VWS V14.01,2013-02-03 04:34:00,
2013-02-02 20:37:00,47.7,45.8,29.71,ESE,115,0.0,1.0,93,0.00,,CLR,0.01,0.00,VWS V14.01,2013-02-03 04:37:00,
2013-02-02 20:38:00,47.7,45.8,29.71,ESE,115,0.0,1.0,93,0.00,,CLR,0.01,0.00,VWS V14.01,2013-02-03 04:38:00,
2013-02-02 20:39:00,47.7,45.8,29.71,ESE,115,0.0,1.0,93,0.00,,CLR,0.01,0.00,VWS V14.01,2013-02-03 04:39:00,
2013-02-02 20:40:00,46.4,44.8,29.71,ESE,115,0.0,0.0,94,0.00,,CLR,0.01,0.00,VWS V14.01,2013-02-03 04:40:00,
2013-02-02 20:42:00,47.6,45.7,29.71,ESE,115,0.0,0.0,93,0.00,,CLR,0.01,0.00,VWS V14.01,2013-02-03 04:42:00,
2013-02-02 20:43:00,47.6,45.7,29.71,ESE,115,0.0,0.0,93,0.00,,CLR,0.01,0.00,VWS V14.01,2013-02-03 04:43:00,
2013-02-02 20:44:00,47.6,45.7,29.71,ESE,115,0.0,0.0,93,0.00,,CLR,0.01,0.00,VWS V14.01,2013-02-03 04:44:00,
2013-02-02 20:47:00,47.6,45.7,29.71,ESE,115,0.0,0.0,93,0.00,,CLR,0.01,0.00,VWS V14.01,2013-02-03 04:47:00,
2013-02-02 20:48:00,47.6,45.7,29.71,ESE,115,0.0,0.0,93,0.00,,CLR,0.01,0.00,VWS V14.01,2013-02-03 04:48:00,
2013-02-02 20:49:00,47.5,45.6,29.71,ESE,115,0.0,0.0,93,0.00,,CLR,0.01,0.00,VWS V14.01,2013-02-03 04:49:00,
2013-02-02 20:50:00,46.2,44.6,29.72,ESE,115,0.0,0.0,94,0.00,,CLR,0.01,0.00,VWS V14.01,2013-02-03 04:50:00,
2013-02-02 20:52:00,47.5,45.6,29.71,ESE,115,0.0,0.0,93,0.00,,CLR,0.01,0.00,VWS V14.01,2013-02-03 04:52:00,
2013-02-02 20:53:00,47.5,45.6,29.71,ESE,115,0.0,0.0,93,0.00,,CLR,0.01,0.00,VWS V14.01,2013-02-03 04:53:00,
2013-02-02 20:54:00,47.5,45.6,29.71,ESE,115,0.0,0.0,93,0.00,,CLR,0.01,0.00,VWS V14.01,2013-02-03 04:54:00,
2013-02-02 20:57:00,47.4,45.5,29.71,ESE,115,0.0,0.0,93,0.00,,CLR,0.01,0.00,VWS V14.01,2013-02-03 04:57:00,
2013-02-02 20:58:00,47.3,45.4,29.71,ESE,115,0.0,0.0,93,0.00,,CLR,0.01,0.00,VWS V14.01,2013-02-03 04:58:00,
2013-02-02 20:59:00,47.3,45.4,29.70,ESE,115,0.0,0.0,93,0.00,,CLR,0.01,0.00,VWS V14.01,2013-02-03 04:59:00,
2013-02-02 21:00:00,47.3,45.7,29.70,ESE,115,0.0,0.0,94,0.00,,CLR,0.01,0.00,VWS V14.01,2013-02-03 05:00:00,
2013-02-02 21:05:00,47.2,45.6,29.70,ESE,115,0.0,0.0,94,0.00,,CLR,0.01,0.00,VWS V14.01,2013-02-03 05:05:00,
2013-02-02 21:06:00,47.2,45.6,29.70,ESE,115,0.0,0.0,94,0.00,,CLR,0.01,0.00,VWS V14.01,2013-02-03 05:06:00,
2013-02-02 21:10:00,47.3,45.7,29.70,ESE,115,0.0,0.0,94,0.00,,CLR,0.01,0.00,VWS V14.01,2013-02-03 05:10:00,
2013-02-02 21:11:00,47.3,45.7,29.71,ESE,115,0.0,0.0,94,0.00,,CLR,0.01,0.00,VWS V14.01,2013-02-03 05:11:00,
2013-02-02 21:15:00,47.2,45.6,29.71,ESE,115,0.0,0.0,94,0.00,,CLR,0.01,0.00,VWS V14.01,2013-02-03 05:15:00,
2013-02-02 21:16:00,47.2,45.6,29.71,ESE,115,0.0,0.0,94,0.00,,CLR,0.01,0.00,VWS V14.01,2013-02-03 05:16:00,
2013-02-02 21:20:00,47.1,45.5,29.71,ESE,115,0.0,0.0,94,0.00,,CLR,0.01,0.00,VWS V14.01,2013-02-03 05:20:00,
2013-02-02 21:21:00,47.0,45.4,29.71,ESE,115,0.0,0.0,94,0.00,,CLR,0.01,0.00,VWS V14.01,2013-02-03 05:21:00,
2013-02-02 21:25:00,46.9,45.0,29.71,ESE,115,0.0,0.0,93,0.00,,CLR,0.01,0.00,VWS V14.01,2013-02-03 05:25:00,
2013-02-02 21:26:00,46.8,44.9,29.71,ESE,115,0.0,0.0,93,0.00,,CLR,0.01,0.00,VWS V14.01,2013-02-03 05:26:00,
2013-02-02 21:30:00,46.7,45.1,29.71,ESE,115,0.0,0.0,94,0.00,,CLR,0.01,0.00,VWS V14.01,2013-02-03 05:30:00,
2013-02-02 21:31:00,46.7,45.1,29.71,ESE,115,0.0,0.0,94,0.00,,CLR,0.01,0.00,VWS V14.01,2013-02-03 05:31:00,
2013-02-02 21:35:00,46.5,44.9,29.71,ESE,115,0.0,0.0,94,0.00,,CLR,0.01,0.00,VWS V14.01,2013-02-03 05:35:00,
2013-02-02 21:36:00,46.5,44.9,29.71,ESE,115,0.0,0.0,94,0.00,,CLR,0.01,0.00,VWS V14.01,2013-02-03 05:36:00,
2013-02-02 21:40:00,46.4,44.8,29.71,ESE,115,0.0,0.0,94,0.00,,CLR,0.01,0.00,VWS V14.01,2013-02-03 05:40:00,
2013-02-02 21:41:00,46.4,44.8,29.71,ESE,115,0.0,0.0,94,0.00,,CLR,0.01,0.00,VWS V14.01,2013-02-03 05:41:00,
2013-02-02 21:42:00,46.4,44.8,29.71,ESE,115,0.0,0.0,94,0.00,,CLR,0.01,0.00,VWS V14.01,2013-02-03 05:42:00,
2013-02-02 21:46:00,46.3,44.7,29.72,ESE,115,0.0,0.0,94,0.00,,CLR,0.01,0.00,VWS V14.01,2013-02-03 05:46:00,
2013-02-02 21:47:00,46.3,44.7,29.72,ESE,115,0.0,0.0,94,0.00,,CLR,0.01,0.00,VWS V14.01,2013-02-03 05:47:00,
2013-02-02 21:50:00,44.9,43.3,29.72,ESE,115,0.0,0.0,94,0.00,,CLR,0.01,0.00,VWS V14.01,2013-02-03 05:50:00,
2013-02-02 21:51:00,46.2,44.6,29.72,ESE,115,0.0,0.0,94,0.00,,CLR,0.01,0.00,VWS V14.01,2013-02-03 05:51:00,
2013-02-02 21:52:00,46.1,44.5,29.71,ESE,115,0.0,0.0,94,0.00,,CLR,0.01,0.00,VWS V14.01,2013-02-03 05:52:00,
2013-02-02 21:56:00,46.0,44.4,29.71,ESE,115,0.0,0.0,94,0.00,,CLR,0.01,0.00,VWS V14.01,2013-02-03 05:56:00,
2013-02-02 21:57:00,46.0,44.4,29.71,ESE,115,0.0,0.0,94,0.00,,CLR,0.01,0.00,VWS V14.01,2013-02-03 05:57:00,
2013-02-02 22:00:00,44.5,42.9,29.72,ESE,115,0.0,0.0,94,0.00,,CLR,0.01,0.00,VWS V14.01,2013-02-03 06:00:00,
2013-02-02 22:01:00,46.0,44.4,29.71,ESE,115,0.0,0.0,94,0.00,,CLR,0.01,0.00,VWS V14.01,2013-02-03 06:01:00,
2013-02-02 22:02:00,46.0,44.4,29.71,ESE,115,0.0,0.0,94,0.00,,CLR,0.01,0.00,VWS V14.01,2013-02-03 06:02:00,
2013-02-02 22:06:00,46.0,44.4,29.71,ESE,115,0.0,0.0,94,0.00,,CLR,0.01,0.00,VWS V14.01,2013-02-03 06:06:00,
2013-02-02 22:07:00,46.0,44.4,29.71,ESE,115,0.0,0.0,94,0.00,,CLR,0.01,0.00,VWS V14.01,2013-02-03 06:07:00,
2013-02-02 22:10:00,44.3,42.7,29.72,ESE,115,0.0,0.0,94,0.00,,CLR,0.01,0.00,VWS V14.01,2013-02-03 06:10:00,
2013-02-02 22:11:00,46.0,44.4,29.71,ESE,115,0.0,0.0,94,0.00,,CLR,0.01,0.00,VWS V14.01,2013-02-03 06:11:00,
2013-02-02 22:12:00,46.0,44.4,29.71,ESE,115,0.0,0.0,94,0.00,,CLR,0.01,0.00,VWS V14.01,2013-02-03 06:12:00,
2013-02-02 22:13:00,46.0,44.4,29.71,ESE,115,0.0,0.0,94,0.00,,CLR,0.01,0.00,VWS V14.01,2013-02-03 06:13:00,
2013-02-02 22:16:00,45.8,44.2,29.72,ESE,115,0.0,0.0,94,0.00,,CLR,0.01,0.00,VWS V14.01,2013-02-03 06:16:00,
2013-02-02 22:17:00,45.8,44.2,29.72,ESE,115,0.0,0.0,94,0.00,,CLR,0.01,0.00,VWS V14.01,2013-02-03 06:17:00,
2013-02-02 22:18:00,45.8,44.2,29.72,ESE,115,0.0,0.0,94,0.00,,CLR,0.01,0.00,VWS V14.01,2013-02-03 06:18:00,
2013-02-02 22:20:00,44.2,42.9,29.72,ESE,115,0.0,0.0,95,0.00,,CLR,0.01,0.00,VWS V14.01,2013-02-03 06:20:00,
2013-02-02 22:21:00,45.6,44.0,29.72,ESE,115,0.0,0.0,94,0.00,,CLR,0.01,0.00,VWS V14.01,2013-02-03 06:21:00,
2013-02-02 22:22:00,45.6,44.0,29.72,ESE,115,0.0,0.0,94,0.00,,CLR,0.01,0.00,VWS V14.01,2013-02-03 06:22:00,
2013-02-02 22:23:00,45.6,44.0,29.72,ESE,115,0.0,0.0,94,0.00,,CLR,0.01,0.00,VWS V14.01,2013-02-03 06:23:00,
2013-02-02 22:26:00,45.4,43.8,29.72,ESE,115,0.0,0.0,94,0.00,,CLR,0.01,0.00,VWS V14.01,2013-02-03 06:26:00,
2013-02-02 22:27:00,45.4,43.8,29.72,ESE,115,0.0,0.0,94,0.00,,CLR,0.01,0.00,VWS V14.01,2013-02-03 06:27:00,
2013-02-02 22:28:00,45.4,43.8,29.72,ESE,115,0.0,0.0,94,0.00,,CLR,0.01,0.00,VWS V14.01,2013-02-03 06:28:00,
2013-02-02 22:30:00,43.9,42.6,29.72,ESE,115,0.0,0.0,95,0.00,,CLR,0.01,0.00,VWS V14.01,2013-02-03 06:30:00,
2013-02-02 22:31:00,45.2,43.6,29.72,ESE,115,0.0,0.0,94,0.00,,CLR,0.01,0.00,VWS V14.01,2013-02-03 06:31:00,
2013-02-02 22:32:00,45.2,43.6,29.72,ESE,115,0.0,0.0,94,0.00,,CLR,0.01,0.00,VWS V14.01,2013-02-03 06:32:00,
2013-02-02 22:33:00,45.2,43.6,29.72,ESE,115,0.0,0.0,94,0.00,,CLR,0.01,0.00,VWS V14.01,2013-02-03 06:33:00,
2013-02-02 22:36:00,45.1,43.5,29.72,ESE,115,0.0,0.0,94,0.00,,CLR,0.01,0.00,VWS V14.01,2013-02-03 06:36:00,
2013-02-02 22:37:00,45.1,43.5,29.72,ESE,115,0.0,0.0,94,0.00,,CLR,0.01,0.00,VWS V14.01,2013-02-03 06:37:00,
2013-02-02 22:38:00,45.1,43.5,29.72,ESE,115,0.0,0.0,94,0.00,,CLR,0.01,0.00,VWS V14.01,2013-02-03 06:38:00,
2013-02-02 22:40:00,44.0,42.7,29.72,ESE,115,0.0,0.0,95,0.00,,CLR,0.01,0.00,VWS V14.01,2013-02-03 06:40:00,
2013-02-02 22:41:00,45.0,43.4,29.72,ESE,115,0.0,0.0,94,0.00,,CLR,0.01,0.00,VWS V14.01,2013-02-03 06:41:00,
2013-02-02 22:42:00,45.0,43.4,29.72,ESE,115,0.0,0.0,94,0.00,,CLR,0.01,0.00,VWS V14.01,2013-02-03 06:42:00,
2013-02-02 22:43:00,45.0,43.4,29.72,ESE,115,0.0,0.0,94,0.00,,CLR,0.01,0.00,VWS V14.01,2013-02-03 06:43:00,
2013-02-02 22:46:00,44.9,43.3,29.72,ESE,115,0.0,0.0,94,0.00,,CLR,0.01,0.00,VWS V14.01,2013-02-03 06:46:00,
2013-02-02 22:47:00,44.9,43.3,29.72,ESE,115,0.0,0.0,94,0.00,,CLR,0.01,0.00,VWS V14.01,2013-02-03 06:47:00,
2013-02-02 22:48:00,44.9,43.3,29.72,ESE,115,0.0,0.0,94,0.00,,CLR,0.01,0.00,VWS V14.01,2013-02-03 06:48:00,
2013-02-02 22:50:00,43.7,42.4,29.72,ESE,115,0.0,0.0,95,0.00,,CLR,0.01,0.00,VWS V14.01,2013-02-03 06:50:00,
2013-02-02 22:51:00,44.9,43.6,29.72,ESE,115,0.0,0.0,95,0.00,,CLR,0.01,0.00,VWS V14.01,2013-02-03 06:51:00,
2013-02-02 22:53:00,44.8,43.5,29.72,ESE,115,0.0,0.0,95,0.00,,CLR,0.01,0.00,VWS V14.01,2013-02-03 06:53:00,
2013-02-02 22:56:00,44.7,43.1,29.72,ESE,115,0.0,0.0,94,0.00,,CLR,0.01,0.00,VWS V14.01,2013-02-03 06:56:00,
2013-02-02 22:58:00,44.6,43.0,29.72,ESE,115,0.0,0.0,94,0.00,,CLR,0.01,0.00,VWS V14.01,2013-02-03 06:58:00,
2013-02-02 22:59:00,44.6,43.0,29.72,ESE,115,0.0,0.0,94,0.00,,CLR,0.01,0.00,VWS V14.01,2013-02-03 06:59:00,
2013-02-02 23:00:00,43.4,42.1,29.72,ESE,115,0.0,0.0,95,0.00,,CLR,0.00,0.00,VWS V14.01,2013-02-03 07:00:00,
2013-02-02 23:01:00,44.5,42.9,29.72,ESE,115,0.0,0.0,94,0.00,,CLR,0.01,0.00,VWS V14.01,2013-02-03 07:01:00,
2013-02-02 23:02:00,44.4,42.8,29.72,ESE,115,0.0,0.0,94,0.00,,CLR,0.01,0.00,VWS V14.01,2013-02-03 07:02:00,
2013-02-02 23:03:00,44.4,42.8,29.72,ESE,115,0.0,0.0,94,0.00,,CLR,0.01,0.00,VWS V14.01,2013-02-03 07:03:00,
2013-02-02 23:04:00,44.4,42.8,29.72,ESE,115,0.0,0.0,94,0.00,,CLR,0.01,0.00,VWS V14.01,2013-02-03 07:04:00,
2013-02-02 23:06:00,44.3,42.7,29.72,ESE,115,0.0,0.0,94,0.00,,CLR,0.01,0.00,VWS V14.01,2013-02-03 07:06:00,
2013-02-02 23:08:00,44.3,42.7,29.72,ESE,115,0.0,0.0,94,0.00,,CLR,0.01,0.00,VWS V14.01,2013-02-03 07:08:00,
2013-02-02 23:09:00,44.3,42.7,29.72,ESE,115,0.0,0.0,94,0.00,,CLR,0.01,0.00,VWS V14.01,2013-02-03 07:09:00,
2013-02-02 23:10:00,43.1,41.5,29.72,ESE,115,0.0,0.0,94,0.00,,CLR,0.00,0.00,VWS V14.01,2013-02-03 07:10:00,
2013-02-02 23:11:00,44.3,43.0,29.72,ESE,115,0.0,0.0,95,0.00,,CLR,0.01,0.00,VWS V14.01,2013-02-03 07:11:00,
2013-02-02 23:13:00,44.2,42.6,29.72,ESE,115,0.0,0.0,94,0.00,,CLR,0.01,0.00,VWS V14.01,2013-02-03 07:13:00,
2013-02-02 23:14:00,44.2,42.9,29.72,ESE,115,0.0,0.0,95,0.00,,CLR,0.01,0.00,VWS V14.01,2013-02-03 07:14:00,
2013-02-02 23:17:00,44.2,42.9,29.72,ESE,115,0.0,0.0,95,0.00,,CLR,0.01,0.00,VWS V14.01,2013-02-03 07:17:00,
2013-02-02 23:18:00,44.2,42.9,29.72,ESE,115,0.0,0.0,95,0.00,,CLR,0.01,0.00,VWS V14.01,2013-02-03 07:18:00,
2013-02-02 23:19:00,44.2,42.9,29.72,ESE,115,0.0,0.0,95,0.00,,CLR,0.01,0.00,VWS V14.01,2013-02-03 07:19:00,
2013-02-02 23:20:00,42.9,41.6,29.72,ESE,115,0.0,0.0,95,0.00,,CLR,0.00,0.00,VWS V14.01,2013-02-03 07:20:00,
2013-02-02 23:22:00,44.2,42.6,29.72,ESE,115,0.0,0.0,94,0.00,,CLR,0.01,0.00,VWS V14.01,2013-02-03 07:22:00,
2013-02-02 23:23:00,44.1,42.5,29.72,ESE,115,0.0,0.0,94,0.00,,CLR,0.01,0.00,VWS V14.01,2013-02-03 07:23:00,
2013-02-02 23:24:00,44.1,42.5,29.72,ESE,115,0.0,0.0,94,0.00,,CLR,0.01,0.00,VWS V14.01,2013-02-03 07:24:00,
2013-02-02 23:27:00,44.0,42.4,29.72,ESE,115,0.0,0.0,94,0.00,,CLR,0.01,0.00,VWS V14.01,2013-02-03 07:27:00,
2013-02-02 23:28:00,44.0,42.4,29.72,ESE,115,0.0,0.0,94,0.00,,CLR,0.01,0.00,VWS V14.01,2013-02-03 07:28:00,
2013-02-02 23:29:00,44.0,42.4,29.72,ESE,115,0.0,0.0,94,0.00,,CLR,0.01,0.00,VWS V14.01,2013-02-03 07:29:00,
2013-02-02 23:30:00,42.9,41.6,29.72,ESE,115,0.0,0.0,95,0.00,,CLR,0.00,0.00,VWS V14.01,2013-02-03 07:30:00,
2013-02-02 23:32:00,44.0,42.7,29.72,ESE,115,0.0,0.0,95,0.00,,CLR,0.01,0.00,VWS V14.01,2013-02-03 07:32:00,
2013-02-02 23:33:00,44.0,42.7,29.72,ESE,115,0.0,0.0,95,0.00,,CLR,0.01,0.00,VWS V14.01,2013-02-03 07:33:00,
2013-02-02 23:34:00,44.0,42.7,29.72,ESE,115,0.0,0.0,95,0.00,,CLR,0.01,0.00,VWS V14.01,2013-02-03 07:34:00,
2013-02-02 23:37:00,44.0,42.7,29.72,ESE,115,0.0,0.0,95,0.00,,CLR,0.01,0.00,VWS V14.01,2013-02-03 07:37:00,
2013-02-02 23:38:00,44.0,42.7,29.72,ESE,115,0.0,0.0,95,0.00,,CLR,0.01,0.00,VWS V14.01,2013-02-03 07:38:00,
2013-02-02 23:39:00,44.0,42.7,29.72,ESE,115,0.0,0.0,95,0.00,,CLR,0.01,0.00,VWS V14.01,2013-02-03 07:39:00,
2013-02-02 23:40:00,43.1,41.8,29.72,ESE,115,0.0,0.0,95,0.00,,CLR,0.00,0.00,VWS V14.01,2013-02-03 07:40:00,
2013-02-02 23:42:00,44.0,42.7,29.72,ESE,115,0.0,0.0,95,0.00,,CLR,0.01,0.00,VWS V14.01,2013-02-03 07:42:00,
2013-02-02 23:43:00,43.9,42.6,29.72,ESE,115,0.0,0.0,95,0.00,,CLR,0.01,0.00,VWS V14.01,2013-02-03 07:43:00,
2013-02-02 23:44:00,43.9,42.6,29.72,ESE,115,0.0,0.0,95,0.00,,CLR,0.01,0.00,VWS V14.01,2013-02-03 07:44:00,
2013-02-02 23:45:00,43.9,42.6,29.72,ESE,115,0.0,0.0,95,0.00,,CLR,0.01,0.00,VWS V14.01,2013-02-03 07:45:00,
2013-02-02 23:47:00,43.8,42.5,29.72,ESE,115,0.0,0.0,95,0.00,,CLR,0.01,0.00,VWS V14.01,2013-02-03 07:47:00,
2013-02-02 23:48:00,43.7,42.4,29.72,ESE,115,0.0,0.0,95,0.00,,CLR,0.01,0.00,VWS V14.01,2013-02-03 07:48:00,
2013-02-02 23:50:00,43.7,42.4,29.72,ESE,115,0.0,0.0,95,0.00,,CLR,0.01,0.00,VWS V14.01,2013-02-03 07:50:00,
2013-02-02 23:53:00,43.6,42.0,29.72,ESE,115,0.0,0.0,94,0.00,,CLR,0.01,0.00,VWS V14.01,2013-02-03 07:53:00,
2013-02-02 23:55:00,43.5,41.9,29.72,ESE,115,0.0,0.0,94,0.00,,CLR,0.01,0.00,VWS V14.01,2013-02-03 07:55:00,
2013-02-02 23:58:00,43.5,42.2,29.72,ESE,115,0.0,0.0,95,0.00,,CLR,0.01,0.00,VWS V14.01,2013-02-03 07:58:00,